<?xml version="1.0" encoding="UTF-8" standalone="no" ?><gpx xmlns="http://www.topografix.com/GPX/1/1" xmlns:gpxx="http://www.garmin.com/xmlschemas/GpxExtensions/v3" xmlns:wptx1="http://www.garmin.com/xmlschemas/WaypointExtension/v1" xmlns:gpxtpx="http://www.garmin.com/xmlschemas/TrackPointExtension/v1" creator="GuideVTT.com" version="1.1" xmlns:xsi="http://www.w3.org/2001/XMLSchema-instance" xsi:schemaLocation="http://www.topografix.com/GPX/1/1 http://www.topografix.com/GPX/1/1/gpx.xsd http://www.garmin.com/xmlschemas/GpxExtensions/v3 http://www8.garmin.com/xmlschemas/GpxExtensionsv3.xsd http://www.garmin.com/xmlschemas/WaypointExtension/v1 http://www8.garmin.com/xmlschemas/WaypointExtensionv1.xsd http://www.garmin.com/xmlschemas/TrackPointExtension/v1 http://www.garmin.com/xmlschemas/TrackPointExtensionv1.xsd">
<metadata><link href="http://www.garmin.com"><text>Garmin International</text></link><time>2013-06-22T15:13:50Z</time></metadata>
<trk><name>le_doubs_bike.gpx</name><extensions><gpxx:TrackExtension><gpxx:DisplayColor>Cyan</gpxx:DisplayColor></gpxx:TrackExtension></extensions><trkseg>
<trkpt lat="47.0576258999811" lon="6.74565789998814"><ele></ele><time>2013-7-30T21:11:37Z</time></trkpt>
<trkpt lat="47.0573971999813" lon="6.74503559998828"><ele></ele><time>2013-7-30T21:11:40Z</time></trkpt>
<trkpt lat="47.0573066999814" lon="6.74493799998833"><ele></ele><time>2013-7-30T21:11:43Z</time></trkpt>
<trkpt lat="47.0571713999815" lon="6.74487399998837"><ele></ele><time>2013-7-30T21:11:46Z</time></trkpt>
<trkpt lat="47.0570807999816" lon="6.74477639998842"><ele></ele><time>2013-7-30T21:11:49Z</time></trkpt>
<trkpt lat="47.0568290999818" lon="6.74405569998858"><ele></ele><time>2013-7-30T21:11:52Z</time></trkpt>
<trkpt lat="47.0567822999819" lon="6.74376019998862"><ele></ele><time>2013-7-30T21:11:55Z</time></trkpt>
<trkpt lat="47.056735299982" lon="6.74343169998867"><ele></ele><time>2013-7-30T21:11:58Z</time></trkpt>
<trkpt lat="47.0566433999821" lon="6.74310389998875"><ele></ele><time>2013-7-30T21:12:1Z</time></trkpt>
<trkpt lat="47.0562304999825" lon="6.74176009998902"><ele></ele><time>2013-7-30T21:12:4Z</time></trkpt>
<trkpt lat="47.0561625999826" lon="6.74169509998905"><ele></ele><time>2013-7-30T21:12:7Z</time></trkpt>
<trkpt lat="47.0560723999826" lon="6.74166339998908"><ele></ele><time>2013-7-30T21:12:10Z</time></trkpt>
<trkpt lat="47.0558650999829" lon="6.74084349998925"><ele></ele><time>2013-7-30T21:12:13Z</time></trkpt>
<trkpt lat="47.0558866999829" lon="6.74071159998925"><ele></ele><time>2013-7-30T21:12:16Z</time></trkpt>
<trkpt lat="47.0559754999829" lon="6.74051299998924"><ele></ele><time>2013-7-30T21:12:19Z</time></trkpt>
<trkpt lat="47.0560629999829" lon="6.74011689998925"><ele></ele><time>2013-7-30T21:12:22Z</time></trkpt>
<trkpt lat="47.0560611999829" lon="6.73982079998928"><ele></ele><time>2013-7-30T21:12:25Z</time></trkpt>
<trkpt lat="47.0560332999831" lon="6.73893269998938"><ele></ele><time>2013-7-30T21:12:28Z</time></trkpt>
<trkpt lat="47.056146999983" lon="6.73912869998933"><ele></ele><time>2013-7-30T21:12:31Z</time></trkpt>
<trkpt lat="47.056170299983" lon="6.7392599999893"><ele></ele><time>2013-7-30T21:12:34Z</time></trkpt>
<trkpt lat="47.056172299983" lon="6.73958899998926"><ele></ele><time>2013-7-30T21:12:37Z</time></trkpt>
<trkpt lat="47.0562221999828" lon="6.74041099998916"><ele></ele><time>2013-7-30T21:12:40Z</time></trkpt>
<trkpt lat="47.0562914999827" lon="6.74070629998911"><ele></ele><time>2013-7-30T21:12:43Z</time></trkpt>
<trkpt lat="47.0564982999825" lon="6.74142749998896"><ele></ele><time>2013-7-30T21:12:46Z</time></trkpt>
<trkpt lat="47.0565905999823" lon="6.74182119998889"><ele></ele><time>2013-7-30T21:12:49Z</time></trkpt>
<trkpt lat="47.0566361999823" lon="6.74191929998887"><ele></ele><time>2013-7-30T21:12:52Z</time></trkpt>
<trkpt lat="47.0567034999823" lon="6.74188549998885"><ele></ele><time>2013-7-30T21:12:55Z</time></trkpt>
<trkpt lat="47.0567251999823" lon="6.74175359998885"><ele></ele><time>2013-7-30T21:12:58Z</time></trkpt>
<trkpt lat="47.0566998999823" lon="6.7412932999889"><ele></ele><time>2013-7-30T21:13:1Z</time></trkpt>
<trkpt lat="47.0566289999825" lon="6.74073479998898"><ele></ele><time>2013-7-30T21:13:4Z</time></trkpt>
<trkpt lat="47.0566273999825" lon="6.74047159998902"><ele></ele><time>2013-7-30T21:13:7Z</time></trkpt>
<trkpt lat="47.0566930999826" lon="6.74017449998903"><ele></ele><time>2013-7-30T21:13:10Z</time></trkpt>
<trkpt lat="47.0567821999825" lon="6.740041799989"><ele></ele><time>2013-7-30T21:13:13Z</time></trkpt>
<trkpt lat="47.0569839999824" lon="6.73994039998896"><ele></ele><time>2013-7-30T21:13:16Z</time></trkpt>
<trkpt lat="47.0570730999824" lon="6.73980759998894"><ele></ele><time>2013-7-30T21:13:19Z</time></trkpt>
<trkpt lat="47.0570945999824" lon="6.73964279998894"><ele></ele><time>2013-7-30T21:13:22Z</time></trkpt>
<trkpt lat="47.0570706999825" lon="6.73941279998897"><ele></ele><time>2013-7-30T21:13:25Z</time></trkpt>
<trkpt lat="47.0570018999825" lon="6.73918329998902"><ele></ele><time>2013-7-30T21:13:28Z</time></trkpt>
<trkpt lat="47.0567739999827" lon="6.73869269998915"><ele></ele><time>2013-7-30T21:13:31Z</time></trkpt>
<trkpt lat="47.0567506999827" lon="6.73856139998917"><ele></ele><time>2013-7-30T21:13:34Z</time></trkpt>
<trkpt lat="47.0568150999828" lon="6.7380668999892"><ele></ele><time>2013-7-30T21:13:37Z</time></trkpt>
<trkpt lat="47.0568572999828" lon="6.73760569998923"><ele></ele><time>2013-7-30T21:13:40Z</time></trkpt>
<trkpt lat="47.0568554999829" lon="6.73730949998926"><ele></ele><time>2013-7-30T21:13:43Z</time></trkpt>
<trkpt lat="47.0568993999829" lon="6.73714439998926"><ele></ele><time>2013-7-30T21:13:46Z</time></trkpt>
<trkpt lat="47.0570541999829" lon="6.73671459998926"><ele></ele><time>2013-7-30T21:13:49Z</time></trkpt>
<trkpt lat="47.0571194999829" lon="6.73635179998927"><ele></ele><time>2013-7-30T21:13:52Z</time></trkpt>
<trkpt lat="47.0571840999829" lon="6.7358901999893"><ele></ele><time>2013-7-30T21:13:55Z</time></trkpt>
<trkpt lat="47.0574330999828" lon="6.73615019998918"><ele></ele><time>2013-7-30T21:13:58Z</time></trkpt>
<trkpt lat="47.0575468999827" lon="6.73637909998912"><ele></ele><time>2013-7-30T21:14:1Z</time></trkpt>
<trkpt lat="47.0576390999826" lon="6.73673989998906"><ele></ele><time>2013-7-30T21:14:4Z</time></trkpt>
<trkpt lat="47.0579876999821" lon="6.73857809998874"><ele></ele><time>2013-7-30T21:14:7Z</time></trkpt>
<trkpt lat="47.0582891999817" lon="6.74008789998848"><ele></ele><time>2013-7-30T21:14:10Z</time></trkpt>
<trkpt lat="47.0589003999812" lon="6.74073809998821"><ele></ele><time>2013-7-30T21:14:13Z</time></trkpt>
<trkpt lat="47.059239099981" lon="6.74096399998807"><ele></ele><time>2013-7-30T21:14:16Z</time></trkpt>
<trkpt lat="47.0600529999805" lon="6.74167739998771"><ele></ele><time>2013-7-30T21:14:19Z</time></trkpt>
<trkpt lat="47.0605052999801" lon="6.74209929998752"><ele></ele><time>2013-7-30T21:14:22Z</time></trkpt>
<trkpt lat="47.0607321999799" lon="6.7424254999874"><ele></ele><time>2013-7-30T21:14:25Z</time></trkpt>
<trkpt lat="47.0609814999797" lon="6.74275129998728"><ele></ele><time>2013-7-30T21:14:28Z</time></trkpt>
<trkpt lat="47.0612985999796" lon="6.74310919998713"><ele></ele><time>2013-7-30T21:14:31Z</time></trkpt>
<trkpt lat="47.0613892999795" lon="6.74323969998709"><ele></ele><time>2013-7-30T21:14:34Z</time></trkpt>
<trkpt lat="47.0614125999794" lon="6.74337099998707"><ele></ele><time>2013-7-30T21:14:37Z</time></trkpt>
<trkpt lat="47.0615743999792" lon="6.74409289998693"><ele></ele><time>2013-7-30T21:14:40Z</time></trkpt>
<trkpt lat="47.061757899979" lon="6.74468289998681"><ele></ele><time>2013-7-30T21:14:43Z</time></trkpt>
<trkpt lat="47.0619170999789" lon="6.74497699998673"><ele></ele><time>2013-7-30T21:14:46Z</time></trkpt>
<trkpt lat="47.0621213999787" lon="6.74530349998662"><ele></ele><time>2013-7-30T21:14:49Z</time></trkpt>
<trkpt lat="47.0622346999787" lon="6.74543369998657"><ele></ele><time>2013-7-30T21:14:52Z</time></trkpt>
<trkpt lat="47.0623245999786" lon="6.74543249998655"><ele></ele><time>2013-7-30T21:14:55Z</time></trkpt>
<trkpt lat="47.0624365999786" lon="6.74536519998651"><ele></ele><time>2013-7-30T21:14:58Z</time></trkpt>
<trkpt lat="47.0627044999785" lon="6.74503259998645"><ele></ele><time>2013-7-30T21:15:1Z</time></trkpt>
<trkpt lat="47.0627943999784" lon="6.74503149998642"><ele></ele><time>2013-7-30T21:15:4Z</time></trkpt>
<trkpt lat="47.0629074999783" lon="6.74512869998638"><ele></ele><time>2013-7-30T21:15:7Z</time></trkpt>
<trkpt lat="47.063382899978" lon="6.74564919998616"><ele></ele><time>2013-7-30T21:15:10Z</time></trkpt>
<trkpt lat="47.0635645999778" lon="6.74594299998606"><ele></ele><time>2013-7-30T21:15:13Z</time></trkpt>
<trkpt lat="47.0637238999777" lon="6.74626999998598"><ele></ele><time>2013-7-30T21:15:16Z</time></trkpt>
<trkpt lat="47.0638596999776" lon="6.74639989998591"><ele></ele><time>2013-7-30T21:15:19Z</time></trkpt>
<trkpt lat="47.0643340999773" lon="6.74675579998571"><ele></ele><time>2013-7-30T21:15:22Z</time></trkpt>
<trkpt lat="47.064717699977" lon="6.74698119998556"><ele></ele><time>2013-7-30T21:15:25Z</time></trkpt>
<trkpt lat="47.0649881999769" lon="6.74707649998546"><ele></ele><time>2013-7-30T21:15:28Z</time></trkpt>
<trkpt lat="47.0651234999768" lon="6.74714059998539"><ele></ele><time>2013-7-30T21:15:31Z</time></trkpt>
<trkpt lat="47.0652364999767" lon="6.74723779998535"><ele></ele><time>2013-7-30T21:15:34Z</time></trkpt>
<trkpt lat="47.0657576999763" lon="6.7478892999851"><ele></ele><time>2013-7-30T21:15:37Z</time></trkpt>
<trkpt lat="47.0660063999761" lon="6.748116499985"><ele></ele><time>2013-7-30T21:15:40Z</time></trkpt>
<trkpt lat="47.066186899976" lon="6.74821289998492"><ele></ele><time>2013-7-30T21:15:43Z</time></trkpt>
<trkpt lat="47.0666146999758" lon="6.74830619998476"><ele></ele><time>2013-7-30T21:15:46Z</time></trkpt>
<trkpt lat="47.0667275999757" lon="6.74837049998472"><ele></ele><time>2013-7-30T21:15:49Z</time></trkpt>
<trkpt lat="47.0668182999756" lon="6.74850099998468"><ele></ele><time>2013-7-30T21:15:52Z</time></trkpt>
<trkpt lat="47.0670478999754" lon="6.74928799998451"><ele></ele><time>2013-7-30T21:15:55Z</time></trkpt>
<trkpt lat="47.0672305999752" lon="6.7497463999844"><ele></ele><time>2013-7-30T21:15:58Z</time></trkpt>
<trkpt lat="47.0677077999748" lon="6.75056309998416"><ele></ele><time>2013-7-30T21:16:1Z</time></trkpt>
<trkpt lat="47.0678449999747" lon="6.75095629998406"><ele></ele><time>2013-7-30T21:16:4Z</time></trkpt>
<trkpt lat="47.0679609999745" lon="6.75154719998397"><ele></ele><time>2013-7-30T21:16:7Z</time></trkpt>
<trkpt lat="47.0681235999743" lon="6.75240089998382"><ele></ele><time>2013-7-30T21:16:10Z</time></trkpt>
<trkpt lat="47.0682162999741" lon="6.75286049998373"><ele></ele><time>2013-7-30T21:16:13Z</time></trkpt>
<trkpt lat="47.068329899974" lon="6.75305649998368"><ele></ele><time>2013-7-30T21:16:16Z</time></trkpt>
<trkpt lat="47.0690093999736" lon="6.75387069998335"><ele></ele><time>2013-7-30T21:16:19Z</time></trkpt>
<trkpt lat="47.0693488999733" lon="6.75422839998321"><ele></ele><time>2013-7-30T21:16:22Z</time></trkpt>
<trkpt lat="47.0695300999732" lon="6.75445649998312"><ele></ele><time>2013-7-30T21:16:25Z</time></trkpt>
<trkpt lat="47.0696661999731" lon="6.75465219998305"><ele></ele><time>2013-7-30T21:16:28Z</time></trkpt>
<trkpt lat="47.069799799973" lon="6.75442009998302"><ele></ele><time>2013-7-30T21:16:31Z</time></trkpt>
<trkpt lat="47.0698206999731" lon="6.75415649998305"><ele></ele><time>2013-7-30T21:16:34Z</time></trkpt>
<trkpt lat="47.0698401999731" lon="6.75366249998309"><ele></ele><time>2013-7-30T21:16:37Z</time></trkpt>
<trkpt lat="47.0698835999732" lon="6.75339869998311"><ele></ele><time>2013-7-30T21:16:40Z</time></trkpt>
<trkpt lat="47.0699500999731" lon="6.7532331999831"><ele></ele><time>2013-7-30T21:16:43Z</time></trkpt>
<trkpt lat="47.0701068999731" lon="6.75313249998305"><ele></ele><time>2013-7-30T21:16:46Z</time></trkpt>
<trkpt lat="47.0702871999729" lon="6.75319599998298"><ele></ele><time>2013-7-30T21:16:49Z</time></trkpt>
<trkpt lat="47.0704453999728" lon="6.75332569998292"><ele></ele><time>2013-7-30T21:16:52Z</time></trkpt>
<trkpt lat="47.0711013999724" lon="6.75397559998262"><ele></ele><time>2013-7-30T21:16:55Z</time></trkpt>
<trkpt lat="47.0712140999723" lon="6.75400699998258"><ele></ele><time>2013-7-30T21:16:58Z</time></trkpt>
<trkpt lat="47.0713264999722" lon="6.75400559998255"><ele></ele><time>2013-7-30T21:17:1Z</time></trkpt>
<trkpt lat="47.0718408999721" lon="6.75353819998242"><ele></ele><time>2013-7-30T21:17:4Z</time></trkpt>
<trkpt lat="47.072131099972" lon="6.75317239998236"><ele></ele><time>2013-7-30T21:17:7Z</time></trkpt>
<trkpt lat="47.0723091999719" lon="6.75287389998232"><ele></ele><time>2013-7-30T21:17:10Z</time></trkpt>
<trkpt lat="47.0723525999719" lon="6.75260999998234"><ele></ele><time>2013-7-30T21:17:13Z</time></trkpt>
<trkpt lat="47.0723060999719" lon="6.75234729998238"><ele></ele><time>2013-7-30T21:17:16Z</time></trkpt>
<trkpt lat="47.0721689999721" lon="6.75198689998246"><ele></ele><time>2013-7-30T21:17:19Z</time></trkpt>
<trkpt lat="47.0720091999722" lon="6.75159399998256"><ele></ele><time>2013-7-30T21:17:22Z</time></trkpt>
<trkpt lat="47.0719620999723" lon="6.75123249998261"><ele></ele><time>2013-7-30T21:17:25Z</time></trkpt>
<trkpt lat="47.0719375999725" lon="6.75090369998266"><ele></ele><time>2013-7-30T21:17:28Z</time></trkpt>
<trkpt lat="47.0717766999726" lon="6.75031329998277"><ele></ele><time>2013-7-30T21:17:31Z</time></trkpt>
<trkpt lat="47.0717750999726" lon="6.75004999998281"><ele></ele><time>2013-7-30T21:17:34Z</time></trkpt>
<trkpt lat="47.0717969999727" lon="6.74995089998281"><ele></ele><time>2013-7-30T21:17:37Z</time></trkpt>
<trkpt lat="47.0719085999726" lon="6.74981779998277"><ele></ele><time>2013-7-30T21:17:40Z</time></trkpt>
<trkpt lat="47.0720426999726" lon="6.74968449998275"><ele></ele><time>2013-7-30T21:17:43Z</time></trkpt>
<trkpt lat="47.0721541999725" lon="6.74951839998272"><ele></ele><time>2013-7-30T21:17:46Z</time></trkpt>
<trkpt lat="47.0722651999725" lon="6.74928659998271"><ele></ele><time>2013-7-30T21:17:49Z</time></trkpt>
<trkpt lat="47.0723991999724" lon="6.74912029998268"><ele></ele><time>2013-7-30T21:17:52Z</time></trkpt>
<trkpt lat="47.0725105999725" lon="6.74895429998266"><ele></ele><time>2013-7-30T21:17:55Z</time></trkpt>
<trkpt lat="47.0725318999725" lon="6.74875649998267"><ele></ele><time>2013-7-30T21:17:58Z</time></trkpt>
<trkpt lat="47.0725069999725" lon="6.74836179998273"><ele></ele><time>2013-7-30T21:18:1Z</time></trkpt>
<trkpt lat="47.0724817999726" lon="6.74790129998278"><ele></ele><time>2013-7-30T21:18:4Z</time></trkpt>
<trkpt lat="47.0724353999727" lon="6.74767149998282"><ele></ele><time>2013-7-30T21:18:7Z</time></trkpt>
<trkpt lat="47.0722737999729" lon="6.74698239998294"><ele></ele><time>2013-7-30T21:18:10Z</time></trkpt>
<trkpt lat="47.072204199973" lon="6.74662119998301"><ele></ele><time>2013-7-30T21:18:13Z</time></trkpt>
<trkpt lat="47.0721993999731" lon="6.74583129998309"><ele></ele><time>2013-7-30T21:18:16Z</time></trkpt>
<trkpt lat="47.0721034999733" lon="6.74484499998323"><ele></ele><time>2013-7-30T21:18:19Z</time></trkpt>
<trkpt lat="47.0720551999735" lon="6.74428609998331"><ele></ele><time>2013-7-30T21:18:22Z</time></trkpt>
<trkpt lat="47.0720760999735" lon="6.74402249998333"><ele></ele><time>2013-7-30T21:18:25Z</time></trkpt>
<trkpt lat="47.0721649999734" lon="6.74385669998332"><ele></ele><time>2013-7-30T21:18:28Z</time></trkpt>
<trkpt lat="47.0722771999734" lon="6.74382239998327"><ele></ele><time>2013-7-30T21:18:31Z</time></trkpt>
<trkpt lat="47.0724795999734" lon="6.7438196999832"><ele></ele><time>2013-7-30T21:18:34Z</time></trkpt>
<trkpt lat="47.072862699973" lon="6.74394639998306"><ele></ele><time>2013-7-30T21:18:37Z</time></trkpt>
<trkpt lat="47.0731553999729" lon="6.74400849998296"><ele></ele><time>2013-7-30T21:18:40Z</time></trkpt>
<trkpt lat="47.0734928999727" lon="6.74403699998283"><ele></ele><time>2013-7-30T21:18:43Z</time></trkpt>
<trkpt lat="47.0736950999726" lon="6.74400149998277"><ele></ele><time>2013-7-30T21:18:46Z</time></trkpt>
<trkpt lat="47.0738291999725" lon="6.74386809998273"><ele></ele><time>2013-7-30T21:18:49Z</time></trkpt>
<trkpt lat="47.0739401999725" lon="6.74363619998273"><ele></ele><time>2013-7-30T21:18:52Z</time></trkpt>
<trkpt lat="47.0739841999725" lon="6.74347099998273"><ele></ele><time>2013-7-30T21:18:55Z</time></trkpt>
<trkpt lat="47.0739598999726" lon="6.74317509998277"><ele></ele><time>2013-7-30T21:18:58Z</time></trkpt>
<trkpt lat="47.0739352999726" lon="6.74281329998281"><ele></ele><time>2013-7-30T21:19:1Z</time></trkpt>
<trkpt lat="47.0739326999727" lon="6.74238549998286"><ele></ele><time>2013-7-30T21:19:4Z</time></trkpt>
<trkpt lat="47.0738157999729" lon="6.74166279998298"><ele></ele><time>2013-7-30T21:19:7Z</time></trkpt>
<trkpt lat="47.073813599973" lon="6.74130069998301"><ele></ele><time>2013-7-30T21:19:10Z</time></trkpt>
<trkpt lat="47.0738784999729" lon="6.74087199998304"><ele></ele><time>2013-7-30T21:19:13Z</time></trkpt>
<trkpt lat="47.073987299973" lon="6.74027799998306"><ele></ele><time>2013-7-30T21:19:16Z</time></trkpt>
<trkpt lat="47.0740764999729" lon="6.74014519998304"><ele></ele><time>2013-7-30T21:19:19Z</time></trkpt>
<trkpt lat="47.0743677999728" lon="6.73997679998296"><ele></ele><time>2013-7-30T21:19:22Z</time></trkpt>
<trkpt lat="47.0746365999728" lon="6.73980869998288"><ele></ele><time>2013-7-30T21:19:25Z</time></trkpt>
<trkpt lat="47.0747704999727" lon="6.73964239998285"><ele></ele><time>2013-7-30T21:19:28Z</time></trkpt>
<trkpt lat="47.0748367999727" lon="6.73944399998285"><ele></ele><time>2013-7-30T21:19:31Z</time></trkpt>
<trkpt lat="47.0748124999727" lon="6.73914809998289"><ele></ele><time>2013-7-30T21:19:34Z</time></trkpt>
<trkpt lat="47.0748564999727" lon="6.73898289998289"><ele></ele><time>2013-7-30T21:19:37Z</time></trkpt>
<trkpt lat="47.0749455999727" lon="6.73885009998287"><ele></ele><time>2013-7-30T21:19:40Z</time></trkpt>
<trkpt lat="47.0753326999724" lon="6.73963509998265"><ele></ele><time>2013-7-30T21:19:43Z</time></trkpt>
<trkpt lat="47.0755362999722" lon="6.73982989998256"><ele></ele><time>2013-7-30T21:19:46Z</time></trkpt>
<trkpt lat="47.0757165999721" lon="6.7398933999825"><ele></ele><time>2013-7-30T21:19:49Z</time></trkpt>
<trkpt lat="47.0765264999717" lon="6.73994859998221"><ele></ele><time>2013-7-30T21:19:52Z</time></trkpt>
<trkpt lat="47.0766167999716" lon="6.74001329998218"><ele></ele><time>2013-7-30T21:19:55Z</time></trkpt>
<trkpt lat="47.0770926999712" lon="6.74059959998195"><ele></ele><time>2013-7-30T21:19:58Z</time></trkpt>
<trkpt lat="47.0774993999709" lon="6.74092349998177"><ele></ele><time>2013-7-30T21:20:1Z</time></trkpt>
<trkpt lat="47.0781988999705" lon="6.7413093999815"><ele></ele><time>2013-7-30T21:20:4Z</time></trkpt>
<trkpt lat="47.0784693999703" lon="6.74140469998139"><ele></ele><time>2013-7-30T21:20:7Z</time></trkpt>
<trkpt lat="47.0785825999703" lon="6.74153489998134"><ele></ele><time>2013-7-30T21:20:10Z</time></trkpt>
<trkpt lat="47.0787411999701" lon="6.74173029998127"><ele></ele><time>2013-7-30T21:20:13Z</time></trkpt>
<trkpt lat="47.07892209997" lon="6.74189259998119"><ele></ele><time>2013-7-30T21:20:16Z</time></trkpt>
<trkpt lat="47.0792380999698" lon="6.74208599998105"><ele></ele><time>2013-7-30T21:20:19Z</time></trkpt>
<trkpt lat="47.0795544999696" lon="6.74234519998092"><ele></ele><time>2013-7-30T21:20:22Z</time></trkpt>
<trkpt lat="47.0799166999693" lon="6.74273559998075"><ele></ele><time>2013-7-30T21:20:25Z</time></trkpt>
<trkpt lat="47.0802107999691" lon="6.74302799998062"><ele></ele><time>2013-7-30T21:20:28Z</time></trkpt>
<trkpt lat="47.080391099969" lon="6.74309149998055"><ele></ele><time>2013-7-30T21:20:31Z</time></trkpt>
<trkpt lat="47.0805713999689" lon="6.74315499998048"><ele></ele><time>2013-7-30T21:20:34Z</time></trkpt>
<trkpt lat="47.0806619999688" lon="6.74325259998043"><ele></ele><time>2013-7-30T21:20:37Z</time></trkpt>
<trkpt lat="47.0807982999687" lon="6.74348129998037"><ele></ele><time>2013-7-30T21:20:40Z</time></trkpt>
<trkpt lat="47.0809797999686" lon="6.74374229998028"><ele></ele><time>2013-7-30T21:20:43Z</time></trkpt>
<trkpt lat="47.0812284999685" lon="6.74396949998016"><ele></ele><time>2013-7-30T21:20:46Z</time></trkpt>
<trkpt lat="47.0814312999683" lon="6.74403279998009"><ele></ele><time>2013-7-30T21:20:49Z</time></trkpt>
<trkpt lat="47.0815659999682" lon="6.74399809998006"><ele></ele><time>2013-7-30T21:20:52Z</time></trkpt>
<trkpt lat="47.081990899968" lon="6.74359749997994"><ele></ele><time>2013-7-30T21:20:55Z</time></trkpt>
<trkpt lat="47.082124999968" lon="6.74346409997991"><ele></ele><time>2013-7-30T21:20:58Z</time></trkpt>
<trkpt lat="47.0822146999679" lon="6.74342999997989"><ele></ele><time>2013-7-30T21:21:1Z</time></trkpt>
<trkpt lat="47.0823273999679" lon="6.74346139997984"><ele></ele><time>2013-7-30T21:21:4Z</time></trkpt>
<trkpt lat="47.0823545999678" lon="6.74425119997975"><ele></ele><time>2013-7-30T21:21:7Z</time></trkpt>
<trkpt lat="47.0823790999677" lon="6.74458009997971"><ele></ele><time>2013-7-30T21:21:10Z</time></trkpt>
<trkpt lat="47.0825169999675" lon="6.7450721999796"><ele></ele><time>2013-7-30T21:21:13Z</time></trkpt>
<trkpt lat="47.0828610999671" lon="6.74618709997937"><ele></ele><time>2013-7-30T21:21:16Z</time></trkpt>
<trkpt lat="47.0833439999666" lon="6.74795869997902"><ele></ele><time>2013-7-30T21:21:19Z</time></trkpt>
<trkpt lat="47.0833905999665" lon="6.74822149997898"><ele></ele><time>2013-7-30T21:21:22Z</time></trkpt>
<trkpt lat="47.0833923999664" lon="6.74851769997894"><ele></ele><time>2013-7-30T21:21:25Z</time></trkpt>
<trkpt lat="47.0833574999662" lon="6.75019719997878"><ele></ele><time>2013-7-30T21:21:28Z</time></trkpt>
<trkpt lat="47.0833138999663" lon="6.75042829997877"><ele></ele><time>2013-7-30T21:21:31Z</time></trkpt>
<trkpt lat="47.0831812999662" lon="6.75082499997878"><ele></ele><time>2013-7-30T21:21:34Z</time></trkpt>
<trkpt lat="47.0832047999662" lon="6.75098939997876"><ele></ele><time>2013-7-30T21:21:37Z</time></trkpt>
<trkpt lat="47.0832737999661" lon="6.7512518999787"><ele></ele><time>2013-7-30T21:21:40Z</time></trkpt>
<trkpt lat="47.083275599966" lon="6.75154809997867"><ele></ele><time>2013-7-30T21:21:43Z</time></trkpt>
<trkpt lat="47.083169299966" lon="6.7525700999786"><ele></ele><time>2013-7-30T21:21:46Z</time></trkpt>
<trkpt lat="47.0837365999655" lon="6.75341879997831"><ele></ele><time>2013-7-30T21:21:49Z</time></trkpt>
<trkpt lat="47.0840542999652" lon="6.75390859997814"><ele></ele><time>2013-7-30T21:21:52Z</time></trkpt>
<trkpt lat="47.084349799965" lon="6.75443159997799"><ele></ele><time>2013-7-30T21:21:55Z</time></trkpt>
<trkpt lat="47.0845775999648" lon="6.75492259997786"><ele></ele><time>2013-7-30T21:21:58Z</time></trkpt>
<trkpt lat="47.0848022999647" lon="6.7548867999778"><ele></ele><time>2013-7-30T21:22:1Z</time></trkpt>
<trkpt lat="47.0849588999646" lon="6.75475309997775"><ele></ele><time>2013-7-30T21:22:4Z</time></trkpt>
<trkpt lat="47.0851146999646" lon="6.75448769997772"><ele></ele><time>2013-7-30T21:22:7Z</time></trkpt>
<trkpt lat="47.0853139999646" lon="6.7539582999777"><ele></ele><time>2013-7-30T21:22:10Z</time></trkpt>
<trkpt lat="47.0853788999645" lon="6.75352949997773"><ele></ele><time>2013-7-30T21:22:13Z</time></trkpt>
<trkpt lat="47.0854222999646" lon="6.75326559997774"><ele></ele><time>2013-7-30T21:22:16Z</time></trkpt>
<trkpt lat="47.0854889999646" lon="6.75313299997773"><ele></ele><time>2013-7-30T21:22:19Z</time></trkpt>
<trkpt lat="47.0856457999645" lon="6.75303219997768"><ele></ele><time>2013-7-30T21:22:22Z</time></trkpt>
<trkpt lat="47.0858480999643" lon="6.75302959997762"><ele></ele><time>2013-7-30T21:22:25Z</time></trkpt>
<trkpt lat="47.0861863999642" lon="6.75318989997749"><ele></ele><time>2013-7-30T21:22:28Z</time></trkpt>
<trkpt lat="47.086501999964" lon="6.75331759997736"><ele></ele><time>2013-7-30T21:22:31Z</time></trkpt>
<trkpt lat="47.0869530999637" lon="6.75354229997718"><ele></ele><time>2013-7-30T21:22:34Z</time></trkpt>
<trkpt lat="47.0872006999636" lon="6.75357199997709"><ele></ele><time>2013-7-30T21:22:37Z</time></trkpt>
<trkpt lat="47.0873126999635" lon="6.75350469997706"><ele></ele><time>2013-7-30T21:22:40Z</time></trkpt>
<trkpt lat="47.0874243999635" lon="6.75337159997704"><ele></ele><time>2013-7-30T21:22:43Z</time></trkpt>
<trkpt lat="47.0874683999635" lon="6.75320639997704"><ele></ele><time>2013-7-30T21:22:46Z</time></trkpt>
<trkpt lat="47.0876464999634" lon="6.75290779997701"><ele></ele><time>2013-7-30T21:22:49Z</time></trkpt>
<trkpt lat="47.0877125999634" lon="6.75267649997701"><ele></ele><time>2013-7-30T21:22:52Z</time></trkpt>
<trkpt lat="47.0878243999634" lon="6.75257629997699"><ele></ele><time>2013-7-30T21:22:55Z</time></trkpt>
<trkpt lat="47.0879367999633" lon="6.75257479997695"><ele></ele><time>2013-7-30T21:22:58Z</time></trkpt>
<trkpt lat="47.0882074999632" lon="6.75270309997684"><ele></ele><time>2013-7-30T21:23:1Z</time></trkpt>
<trkpt lat="47.088388299963" lon="6.75286539997676"><ele></ele><time>2013-7-30T21:23:4Z</time></trkpt>
<trkpt lat="47.088500799963" lon="6.75286389997672"><ele></ele><time>2013-7-30T21:23:7Z</time></trkpt>
<trkpt lat="47.0886127999629" lon="6.75279669997669"><ele></ele><time>2013-7-30T21:23:10Z</time></trkpt>
<trkpt lat="47.0887013999629" lon="6.75256499997668"><ele></ele><time>2013-7-30T21:23:13Z</time></trkpt>
<trkpt lat="47.0888563999629" lon="6.75216789997667"><ele></ele><time>2013-7-30T21:23:16Z</time></trkpt>
<trkpt lat="47.0889455999628" lon="6.75203509997665"><ele></ele><time>2013-7-30T21:23:19Z</time></trkpt>
<trkpt lat="47.0891244999628" lon="6.75186819997661"><ele></ele><time>2013-7-30T21:23:22Z</time></trkpt>
<trkpt lat="47.0893041999627" lon="6.75183289997655"><ele></ele><time>2013-7-30T21:23:25Z</time></trkpt>
<trkpt lat="47.0893721999626" lon="6.75193079997652"><ele></ele><time>2013-7-30T21:23:28Z</time></trkpt>
<trkpt lat="47.0895317999625" lon="6.75229099997642"><ele></ele><time>2013-7-30T21:23:31Z</time></trkpt>
<trkpt lat="47.0896903999624" lon="6.75248649997635"><ele></ele><time>2013-7-30T21:23:34Z</time></trkpt>
<trkpt lat="47.0898260999623" lon="6.75261649997628"><ele></ele><time>2013-7-30T21:23:37Z</time></trkpt>
<trkpt lat="47.0899171999622" lon="6.75281289997623"><ele></ele><time>2013-7-30T21:23:40Z</time></trkpt>
<trkpt lat="47.0900089999621" lon="6.75310799997618"><ele></ele><time>2013-7-30T21:23:43Z</time></trkpt>
<trkpt lat="47.090099499962" lon="6.75320559997613"><ele></ele><time>2013-7-30T21:23:46Z</time></trkpt>
<trkpt lat="47.090212099962" lon="6.75323709997608"><ele></ele><time>2013-7-30T21:23:49Z</time></trkpt>
<trkpt lat="47.0903245999619" lon="6.75323569997605"><ele></ele><time>2013-7-30T21:23:52Z</time></trkpt>
<trkpt lat="47.0903925999618" lon="6.75333359997601"><ele></ele><time>2013-7-30T21:23:55Z</time></trkpt>
<trkpt lat="47.0904166999618" lon="6.75359669997597"><ele></ele><time>2013-7-30T21:23:58Z</time></trkpt>
<trkpt lat="47.0904410999617" lon="6.75392569997593"><ele></ele><time>2013-7-30T21:24:1Z</time></trkpt>
<trkpt lat="47.0905325999616" lon="6.75418789997587"><ele></ele><time>2013-7-30T21:24:4Z</time></trkpt>
<trkpt lat="47.0906694999615" lon="6.75451539997579"><ele></ele><time>2013-7-30T21:24:7Z</time></trkpt>
<trkpt lat="47.0907828999613" lon="6.75467859997574"><ele></ele><time>2013-7-30T21:24:10Z</time></trkpt>
<trkpt lat="47.0908507999614" lon="6.7547435999757"><ele></ele><time>2013-7-30T21:24:13Z</time></trkpt>
<trkpt lat="47.0909181999613" lon="6.75474279997569"><ele></ele><time>2013-7-30T21:24:16Z</time></trkpt>
<trkpt lat="47.0910075999613" lon="6.75464279997566"><ele></ele><time>2013-7-30T21:24:19Z</time></trkpt>
<trkpt lat="47.0910513999613" lon="6.75444469997567"><ele></ele><time>2013-7-30T21:24:22Z</time></trkpt>
<trkpt lat="47.0910720999614" lon="6.7541480999757"><ele></ele><time>2013-7-30T21:24:25Z</time></trkpt>
<trkpt lat="47.0910919999614" lon="6.75371979997574"><ele></ele><time>2013-7-30T21:24:28Z</time></trkpt>
<trkpt lat="47.0911809999614" lon="6.75355399997572"><ele></ele><time>2013-7-30T21:24:31Z</time></trkpt>
<trkpt lat="47.0913598999613" lon="6.75338709997568"><ele></ele><time>2013-7-30T21:24:34Z</time></trkpt>
<trkpt lat="47.0916510999611" lon="6.7531857999756"><ele></ele><time>2013-7-30T21:24:37Z</time></trkpt>
<trkpt lat="47.0918084999611" lon="6.75318379997554"><ele></ele><time>2013-7-30T21:24:40Z</time></trkpt>
<trkpt lat="47.0919212999612" lon="6.75324819997549"><ele></ele><time>2013-7-30T21:24:43Z</time></trkpt>
<trkpt lat="47.0923277999607" lon="6.75353929997533"><ele></ele><time>2013-7-30T21:24:46Z</time></trkpt>
<trkpt lat="47.0926212999605" lon="6.7537330999752"><ele></ele><time>2013-7-30T21:24:49Z</time></trkpt>
<trkpt lat="47.0927348999605" lon="6.75392919997513"><ele></ele><time>2013-7-30T21:24:52Z</time></trkpt>
<trkpt lat="47.0929394999603" lon="6.75428879997502"><ele></ele><time>2013-7-30T21:24:55Z</time></trkpt>
<trkpt lat="47.0930974999603" lon="6.75438559997496"><ele></ele><time>2013-7-30T21:24:58Z</time></trkpt>
<trkpt lat="47.09341309996" lon="6.75451329997484"><ele></ele><time>2013-7-30T21:25:1Z</time></trkpt>
<trkpt lat="47.0936838999598" lon="6.75467449997473"><ele></ele><time>2013-7-30T21:25:4Z</time></trkpt>
<trkpt lat="47.0939540999596" lon="6.75473689997464"><ele></ele><time>2013-7-30T21:25:7Z</time></trkpt>
<trkpt lat="47.0941572999595" lon="6.75486599997455"><ele></ele><time>2013-7-30T21:25:10Z</time></trkpt>
<trkpt lat="47.0945412999593" lon="6.75515749997438"><ele></ele><time>2013-7-30T21:25:13Z</time></trkpt>
<trkpt lat="47.0947452999591" lon="6.75541829997428"><ele></ele><time>2013-7-30T21:25:16Z</time></trkpt>
<trkpt lat="47.0950176999589" lon="6.75584289997415"><ele></ele><time>2013-7-30T21:25:19Z</time></trkpt>
<trkpt lat="47.0952903999586" lon="6.756333399974"><ele></ele><time>2013-7-30T21:25:22Z</time></trkpt>
<trkpt lat="47.0953817999585" lon="6.75656269997394"><ele></ele><time>2013-7-30T21:25:25Z</time></trkpt>
<trkpt lat="47.0953828999585" lon="6.75676029997393"><ele></ele><time>2013-7-30T21:25:28Z</time></trkpt>
<trkpt lat="47.0953167999585" lon="6.75699159997391"><ele></ele><time>2013-7-30T21:25:31Z</time></trkpt>
<trkpt lat="47.0952954999585" lon="6.7571894999739"><ele></ele><time>2013-7-30T21:25:34Z</time></trkpt>
<trkpt lat="47.0953637999584" lon="6.75732029997387"><ele></ele><time>2013-7-30T21:25:37Z</time></trkpt>
<trkpt lat="47.0955217999583" lon="6.75741709997381"><ele></ele><time>2013-7-30T21:25:40Z</time></trkpt>
<trkpt lat="47.0958580999582" lon="6.7572481999737"><ele></ele><time>2013-7-30T21:25:43Z</time></trkpt>
<trkpt lat="47.096060499958" lon="6.75724559997364"><ele></ele><time>2013-7-30T21:25:46Z</time></trkpt>
<trkpt lat="47.0964209999579" lon="6.75737269997349"><ele></ele><time>2013-7-30T21:25:49Z</time></trkpt>
<trkpt lat="47.0968495999576" lon="6.75759779997332"><ele></ele><time>2013-7-30T21:25:52Z</time></trkpt>
<trkpt lat="47.0972107999573" lon="6.75782369997317"><ele></ele><time>2013-7-30T21:25:55Z</time></trkpt>
<trkpt lat="47.097572699957" lon="6.75818139997301"><ele></ele><time>2013-7-30T21:25:58Z</time></trkpt>
<trkpt lat="47.0978215999569" lon="6.7584416999729"><ele></ele><time>2013-7-30T21:26:1Z</time></trkpt>
<trkpt lat="47.0980218999568" lon="6.75807689997287"><ele></ele><time>2013-7-30T21:26:4Z</time></trkpt>
<trkpt lat="47.0980879999568" lon="6.75784549997287"><ele></ele><time>2013-7-30T21:26:7Z</time></trkpt>
<trkpt lat="47.0980855999569" lon="6.75745029997291"><ele></ele><time>2013-7-30T21:26:10Z</time></trkpt>
<trkpt lat="47.097970299957" lon="6.756957799973"><ele></ele><time>2013-7-30T21:26:13Z</time></trkpt>
<trkpt lat="47.0978104999572" lon="6.7565646999731"><ele></ele><time>2013-7-30T21:26:16Z</time></trkpt>
<trkpt lat="47.0976514999573" lon="6.75630329997317"><ele></ele><time>2013-7-30T21:26:19Z</time></trkpt>
<trkpt lat="47.0974025999575" lon="6.75604299997329"><ele></ele><time>2013-7-30T21:26:22Z</time></trkpt>
<trkpt lat="47.0971542999577" lon="6.7558814999734"><ele></ele><time>2013-7-30T21:26:25Z</time></trkpt>
<trkpt lat="47.0968839999578" lon="6.7558190999735"><ele></ele><time>2013-7-30T21:26:28Z</time></trkpt>
<trkpt lat="47.0967707999579" lon="6.75568879997356"><ele></ele><time>2013-7-30T21:26:31Z</time></trkpt>
<trkpt lat="47.0972658999576" lon="6.75574829997337"><ele></ele><time>2013-7-30T21:26:34Z</time></trkpt>
<trkpt lat="47.0975355999575" lon="6.75571199997328"><ele></ele><time>2013-7-30T21:26:37Z</time></trkpt>
<trkpt lat="47.0977596999575" lon="6.75557739997322"><ele></ele><time>2013-7-30T21:26:40Z</time></trkpt>
<trkpt lat="47.0979166999573" lon="6.75550949997317"><ele></ele><time>2013-7-30T21:26:43Z</time></trkpt>
<trkpt lat="47.0980065999573" lon="6.75550839997314"><ele></ele><time>2013-7-30T21:26:46Z</time></trkpt>
<trkpt lat="47.0982545999571" lon="6.75560399997305"><ele></ele><time>2013-7-30T21:26:49Z</time></trkpt>
<trkpt lat="47.098434399957" lon="6.75560169997298"><ele></ele><time>2013-7-30T21:26:52Z</time></trkpt>
<trkpt lat="47.0986363999569" lon="6.75553329997293"><ele></ele><time>2013-7-30T21:26:55Z</time></trkpt>
<trkpt lat="47.0989054999568" lon="6.75539809997285"><ele></ele><time>2013-7-30T21:26:58Z</time></trkpt>
<trkpt lat="47.0991295999567" lon="6.75526349997277"><ele></ele><time>2013-7-30T21:27:1Z</time></trkpt>
<trkpt lat="47.0993305999567" lon="6.75503039997274"><ele></ele><time>2013-7-30T21:27:4Z</time></trkpt>
<trkpt lat="47.0996214999564" lon="6.75479619997266"><ele></ele><time>2013-7-30T21:27:7Z</time></trkpt>
<trkpt lat="47.1000913999563" lon="6.75439499997254"><ele></ele><time>2013-7-30T21:27:10Z</time></trkpt>
<trkpt lat="47.1003866999561" lon="6.75488519997239"><ele></ele><time>2013-7-30T21:27:13Z</time></trkpt>
<trkpt lat="47.1008856999557" lon="6.75560329997213"><ele></ele><time>2013-7-30T21:27:16Z</time></trkpt>
<trkpt lat="47.1010444999555" lon="6.75583189997205"><ele></ele><time>2013-7-30T21:27:19Z</time></trkpt>
<trkpt lat="47.1013858999552" lon="6.75651909997186"><ele></ele><time>2013-7-30T21:27:22Z</time></trkpt>
<trkpt lat="47.101637099955" lon="6.7571745999717"><ele></ele><time>2013-7-30T21:27:25Z</time></trkpt>
<trkpt lat="47.1018660999547" lon="6.75786329997155"><ele></ele><time>2013-7-30T21:27:28Z</time></trkpt>
<trkpt lat="47.1019794999547" lon="6.75802649997149"><ele></ele><time>2013-7-30T21:27:31Z</time></trkpt>
<trkpt lat="47.1022737999544" lon="6.75835209997136"><ele></ele><time>2013-7-30T21:27:34Z</time></trkpt>
<trkpt lat="47.1023646999544" lon="6.75851559997131"><ele></ele><time>2013-7-30T21:27:37Z</time></trkpt>
<trkpt lat="47.1025013999542" lon="6.75881029997123"><ele></ele><time>2013-7-30T21:27:40Z</time></trkpt>
<trkpt lat="47.1028656999538" lon="6.75956319997102"><ele></ele><time>2013-7-30T21:27:43Z</time></trkpt>
<trkpt lat="47.1030482999537" lon="6.76002189997091"><ele></ele><time>2013-7-30T21:27:46Z</time></trkpt>
<trkpt lat="47.1032091999535" lon="6.7606126999708"><ele></ele><time>2013-7-30T21:27:49Z</time></trkpt>
<trkpt lat="47.1033459999534" lon="6.76094039997071"><ele></ele><time>2013-7-30T21:27:52Z</time></trkpt>
<trkpt lat="47.1034834999532" lon="6.76136679997062"><ele></ele><time>2013-7-30T21:27:55Z</time></trkpt>
<trkpt lat="47.103735899953" lon="6.76221989997044"><ele></ele><time>2013-7-30T21:27:58Z</time></trkpt>
<trkpt lat="47.1041239999525" lon="6.7632030999702"><ele></ele><time>2013-7-30T21:28:1Z</time></trkpt>
<trkpt lat="47.1043980999523" lon="6.76392419997002"><ele></ele><time>2013-7-30T21:28:4Z</time></trkpt>
<trkpt lat="47.1045345999522" lon="6.76418589996995"><ele></ele><time>2013-7-30T21:28:7Z</time></trkpt>
<trkpt lat="47.1046938999521" lon="6.76451329996986"><ele></ele><time>2013-7-30T21:28:10Z</time></trkpt>
<trkpt lat="47.104785399952" lon="6.7647755999698"><ele></ele><time>2013-7-30T21:28:13Z</time></trkpt>
<trkpt lat="47.1049241999518" lon="6.76543259996968"><ele></ele><time>2013-7-30T21:28:16Z</time></trkpt>
<trkpt lat="47.1050419999516" lon="6.76635329996954"><ele></ele><time>2013-7-30T21:28:19Z</time></trkpt>
<trkpt lat="47.1050900999515" lon="6.76687969996947"><ele></ele><time>2013-7-30T21:28:22Z</time></trkpt>
<trkpt lat="47.1051601999513" lon="6.7673398999694"><ele></ele><time>2013-7-30T21:28:25Z</time></trkpt>
<trkpt lat="47.1051851999513" lon="6.76776779996934"><ele></ele><time>2013-7-30T21:28:28Z</time></trkpt>
<trkpt lat="47.1051644999513" lon="6.76806449996931"><ele></ele><time>2013-7-30T21:28:31Z</time></trkpt>
<trkpt lat="47.1056179999509" lon="6.76871749996908"><ele></ele><time>2013-7-30T21:28:34Z</time></trkpt>
<trkpt lat="47.1060260999506" lon="6.76927229996888"><ele></ele><time>2013-7-30T21:28:37Z</time></trkpt>
<trkpt lat="47.1062308999504" lon="6.76969799996877"><ele></ele><time>2013-7-30T21:28:40Z</time></trkpt>
<trkpt lat="47.1064138999502" lon="6.77022269996865"><ele></ele><time>2013-7-30T21:28:43Z</time></trkpt>
<trkpt lat="47.1065664999503" lon="6.76939729996868"><ele></ele><time>2013-7-30T21:28:46Z</time></trkpt>
<trkpt lat="47.1068739999503" lon="6.76814189996872"><ele></ele><time>2013-7-30T21:28:49Z</time></trkpt>
<trkpt lat="47.1069389999503" lon="6.76771289996873"><ele></ele><time>2013-7-30T21:28:52Z</time></trkpt>
<trkpt lat="47.1069600999504" lon="6.76748199996875"><ele></ele><time>2013-7-30T21:28:55Z</time></trkpt>
<trkpt lat="47.1070017999504" lon="6.76692159996879"><ele></ele><time>2013-7-30T21:28:58Z</time></trkpt>
<trkpt lat="47.1070453999504" lon="6.7666904999688"><ele></ele><time>2013-7-30T21:29:1Z</time></trkpt>
<trkpt lat="47.1071334999504" lon="6.76635999996881"><ele></ele><time>2013-7-30T21:29:4Z</time></trkpt>
<trkpt lat="47.1071324999504" lon="6.76619529996882"><ele></ele><time>2013-7-30T21:29:7Z</time></trkpt>
<trkpt lat="47.1070861999505" lon="6.76596529996887"><ele></ele><time>2013-7-30T21:29:10Z</time></trkpt>
<trkpt lat="47.1066734999509" lon="6.76462009996915"><ele></ele><time>2013-7-30T21:29:13Z</time></trkpt>
<trkpt lat="47.106649799951" lon="6.76442279996918"><ele></ele><time>2013-7-30T21:29:16Z</time></trkpt>
<trkpt lat="47.106693799951" lon="6.76425749996919"><ele></ele><time>2013-7-30T21:29:19Z</time></trkpt>
<trkpt lat="47.106783199951" lon="6.76415759996917"><ele></ele><time>2013-7-30T21:29:22Z</time></trkpt>
<trkpt lat="47.1068957999509" lon="6.76418909996913"><ele></ele><time>2013-7-30T21:29:25Z</time></trkpt>
<trkpt lat="47.1069868999509" lon="6.76438559996907"><ele></ele><time>2013-7-30T21:29:28Z</time></trkpt>
<trkpt lat="47.1071466999506" lon="6.76477879996898"><ele></ele><time>2013-7-30T21:29:31Z</time></trkpt>
<trkpt lat="47.1073053999506" lon="6.76500739996889"><ele></ele><time>2013-7-30T21:29:34Z</time></trkpt>
<trkpt lat="47.1075994999503" lon="6.76530009996876"><ele></ele><time>2013-7-30T21:29:37Z</time></trkpt>
<trkpt lat="47.1078035999502" lon="6.76559399996865"><ele></ele><time>2013-7-30T21:29:40Z</time></trkpt>
<trkpt lat="47.1081224999499" lon="6.76628169996848"><ele></ele><time>2013-7-30T21:29:43Z</time></trkpt>
<trkpt lat="47.1086457999494" lon="6.76732909996818"><ele></ele><time>2013-7-30T21:29:46Z</time></trkpt>
<trkpt lat="47.109191299949" lon="6.76831039996788"><ele></ele><time>2013-7-30T21:29:49Z</time></trkpt>
<trkpt lat="47.1094637999488" lon="6.76876819996774"><ele></ele><time>2013-7-30T21:29:52Z</time></trkpt>
<trkpt lat="47.1096903999485" lon="6.76906179996763"><ele></ele><time>2013-7-30T21:29:55Z</time></trkpt>
<trkpt lat="47.1101422999483" lon="6.76941849996744"><ele></ele><time>2013-7-30T21:29:58Z</time></trkpt>
<trkpt lat="47.1103459999481" lon="6.76964649996734"><ele></ele><time>2013-7-30T21:30:1Z</time></trkpt>
<trkpt lat="47.1106861999478" lon="6.77013629996717"><ele></ele><time>2013-7-30T21:30:4Z</time></trkpt>
<trkpt lat="47.1107781999478" lon="6.77049749996709"><ele></ele><time>2013-7-30T21:30:7Z</time></trkpt>
<trkpt lat="47.1108248999476" lon="6.77079339996705"><ele></ele><time>2013-7-30T21:30:10Z</time></trkpt>
<trkpt lat="47.1108930999476" lon="6.770924299967"><ele></ele><time>2013-7-30T21:30:13Z</time></trkpt>
<trkpt lat="47.1110739999474" lon="6.77108669996693"><ele></ele><time>2013-7-30T21:30:16Z</time></trkpt>
<trkpt lat="47.1112328999473" lon="6.77134829996685"><ele></ele><time>2013-7-30T21:30:19Z</time></trkpt>
<trkpt lat="47.1113689999473" lon="6.77154419996678"><ele></ele><time>2013-7-30T21:30:22Z</time></trkpt>
<trkpt lat="47.1114819999472" lon="6.77164159996673"><ele></ele><time>2013-7-30T21:30:25Z</time></trkpt>
<trkpt lat="47.1115717999471" lon="6.7716075999667"><ele></ele><time>2013-7-30T21:30:28Z</time></trkpt>
<trkpt lat="47.1116159999471" lon="6.7714752999667"><ele></ele><time>2013-7-30T21:30:31Z</time></trkpt>
<trkpt lat="47.1116368999471" lon="6.77121149996672"><ele></ele><time>2013-7-30T21:30:34Z</time></trkpt>
<trkpt lat="47.1115678999472" lon="6.77094879996677"><ele></ele><time>2013-7-30T21:30:37Z</time></trkpt>
<trkpt lat="47.1114535999473" lon="6.77062079996685"><ele></ele><time>2013-7-30T21:30:40Z</time></trkpt>
<trkpt lat="47.1114752999473" lon="6.77048879996686"><ele></ele><time>2013-7-30T21:30:43Z</time></trkpt>
<trkpt lat="47.1115188999473" lon="6.77025769996687"><ele></ele><time>2013-7-30T21:30:46Z</time></trkpt>
<trkpt lat="47.1116078999473" lon="6.77009189996685"><ele></ele><time>2013-7-30T21:30:49Z</time></trkpt>
<trkpt lat="47.1116292999474" lon="6.76989399996687"><ele></ele><time>2013-7-30T21:30:52Z</time></trkpt>
<trkpt lat="47.1115819999474" lon="6.76949929996692"><ele></ele><time>2013-7-30T21:30:55Z</time></trkpt>
<trkpt lat="47.1113017999479" lon="6.76772399996722"><ele></ele><time>2013-7-30T21:30:58Z</time></trkpt>
<trkpt lat="47.1110697999482" lon="6.76650819996743"><ele></ele><time>2013-7-30T21:31:1Z</time></trkpt>
<trkpt lat="47.1108376999485" lon="6.76529229996763"><ele></ele><time>2013-7-30T21:31:4Z</time></trkpt>
<trkpt lat="47.1107892999486" lon="6.76469999996771"><ele></ele><time>2013-7-30T21:31:7Z</time></trkpt>
<trkpt lat="47.1106944999488" lon="6.76387769996783"><ele></ele><time>2013-7-30T21:31:10Z</time></trkpt>
<trkpt lat="47.110577599949" lon="6.76312159996796"><ele></ele><time>2013-7-30T21:31:13Z</time></trkpt>
<trkpt lat="47.1104401999491" lon="6.76269509996806"><ele></ele><time>2013-7-30T21:31:16Z</time></trkpt>
<trkpt lat="47.1103022999493" lon="6.76220269996815"><ele></ele><time>2013-7-30T21:31:19Z</time></trkpt>
<trkpt lat="47.1101629999495" lon="6.76144689996829"><ele></ele><time>2013-7-30T21:31:22Z</time></trkpt>
<trkpt lat="47.1099095999498" lon="6.76042899996848"><ele></ele><time>2013-7-30T21:31:25Z</time></trkpt>
<trkpt lat="47.10979359995" lon="6.75983759996858"><ele></ele><time>2013-7-30T21:31:28Z</time></trkpt>
<trkpt lat="47.1095184999503" lon="6.75895169996878"><ele></ele><time>2013-7-30T21:31:31Z</time></trkpt>
<trkpt lat="47.1092189999507" lon="6.75773679996901"><ele></ele><time>2013-7-30T21:31:34Z</time></trkpt>
<trkpt lat="47.1091276999507" lon="6.75750739996906"><ele></ele><time>2013-7-30T21:31:37Z</time></trkpt>
<trkpt lat="47.1086949999511" lon="6.75659059996931"><ele></ele><time>2013-7-30T21:31:40Z</time></trkpt>
<trkpt lat="47.1084669999513" lon="6.75606649996944"><ele></ele><time>2013-7-30T21:31:43Z</time></trkpt>
<trkpt lat="47.1082156999516" lon="6.75541089996961"><ele></ele><time>2013-7-30T21:31:46Z</time></trkpt>
<trkpt lat="47.107736999952" lon="6.75433009996989"><ele></ele><time>2013-7-30T21:31:49Z</time></trkpt>
<trkpt lat="47.1075998999522" lon="6.75396949996998"><ele></ele><time>2013-7-30T21:31:52Z</time></trkpt>
<trkpt lat="47.1074375999524" lon="6.75314819997012"><ele></ele><time>2013-7-30T21:31:55Z</time></trkpt>
<trkpt lat="47.1069511999531" lon="6.75078289997055"><ele></ele><time>2013-7-30T21:31:58Z</time></trkpt>
<trkpt lat="47.1066270999535" lon="6.74923899997082"><ele></ele><time>2013-7-30T21:32:1Z</time></trkpt>
<trkpt lat="47.1064895999536" lon="6.74881259997091"><ele></ele><time>2013-7-30T21:32:4Z</time></trkpt>
<trkpt lat="47.1062615999538" lon="6.74828859997105"><ele></ele><time>2013-7-30T21:32:7Z</time></trkpt>
<trkpt lat="47.1058969999541" lon="6.74750279997125"><ele></ele><time>2013-7-30T21:32:10Z</time></trkpt>
<trkpt lat="47.1056924999543" lon="6.74714309997137"><ele></ele><time>2013-7-30T21:32:13Z</time></trkpt>
<trkpt lat="47.1053971999546" lon="6.74665289997151"><ele></ele><time>2013-7-30T21:32:16Z</time></trkpt>
<trkpt lat="47.1050345999548" lon="6.74619649997169"><ele></ele><time>2013-7-30T21:32:19Z</time></trkpt>
<trkpt lat="47.104718399955" lon="6.74596999997183"><ele></ele><time>2013-7-30T21:32:22Z</time></trkpt>
<trkpt lat="47.1044025999553" lon="6.74580939997195"><ele></ele><time>2013-7-30T21:32:25Z</time></trkpt>
<trkpt lat="47.1041323999554" lon="6.74574709997206"><ele></ele><time>2013-7-30T21:32:28Z</time></trkpt>
<trkpt lat="47.1039301999556" lon="6.74578259997212"><ele></ele><time>2013-7-30T21:32:31Z</time></trkpt>
<trkpt lat="47.1036618999556" lon="6.74604959997218"><ele></ele><time>2013-7-30T21:32:34Z</time></trkpt>
<trkpt lat="47.1035056999557" lon="6.74624919997221"><ele></ele><time>2013-7-30T21:32:37Z</time></trkpt>
<trkpt lat="47.1033502999557" lon="6.74658059997223"><ele></ele><time>2013-7-30T21:32:40Z</time></trkpt>
<trkpt lat="47.1032620999558" lon="6.74687809997224"><ele></ele><time>2013-7-30T21:32:43Z</time></trkpt>
<trkpt lat="47.1031962999557" lon="6.74714249997224"><ele></ele><time>2013-7-30T21:32:46Z</time></trkpt>
<trkpt lat="47.1031070999557" lon="6.74727539997224"><ele></ele><time>2013-7-30T21:32:49Z</time></trkpt>
<trkpt lat="47.1028384999559" lon="6.74747639997232"><ele></ele><time>2013-7-30T21:32:52Z</time></trkpt>
<trkpt lat="47.102570199956" lon="6.74774339997238"><ele></ele><time>2013-7-30T21:32:55Z</time></trkpt>
<trkpt lat="47.1023918999561" lon="6.74800919997241"><ele></ele><time>2013-7-30T21:32:58Z</time></trkpt>
<trkpt lat="47.102280899956" lon="6.74824109997244"><ele></ele><time>2013-7-30T21:33:1Z</time></trkpt>
<trkpt lat="47.102214999956" lon="6.74850549997243"><ele></ele><time>2013-7-30T21:33:4Z</time></trkpt>
<trkpt lat="47.1020814999561" lon="6.74873769997244"><ele></ele><time>2013-7-30T21:33:7Z</time></trkpt>
<trkpt lat="47.1017464999562" lon="6.74913729997252"><ele></ele><time>2013-7-30T21:33:10Z</time></trkpt>
<trkpt lat="47.1015671999563" lon="6.74923839997257"><ele></ele><time>2013-7-30T21:33:13Z</time></trkpt>
<trkpt lat="47.1013872999564" lon="6.74924069997264"><ele></ele><time>2013-7-30T21:33:16Z</time></trkpt>
<trkpt lat="47.1012754999564" lon="6.74934089997266"><ele></ele><time>2013-7-30T21:33:19Z</time></trkpt>
<trkpt lat="47.1010288999565" lon="6.74947579997274"><ele></ele><time>2013-7-30T21:33:22Z</time></trkpt>
<trkpt lat="47.1007817999567" lon="6.74951199997281"><ele></ele><time>2013-7-30T21:33:25Z</time></trkpt>
<trkpt lat="47.1005120999568" lon="6.74954839997291"><ele></ele><time>2013-7-30T21:33:28Z</time></trkpt>
<trkpt lat="47.100243299957" lon="6.74971649997299"><ele></ele><time>2013-7-30T21:33:31Z</time></trkpt>
<trkpt lat="47.0997511999572" lon="6.7501509999731"><ele></ele><time>2013-7-30T21:33:34Z</time></trkpt>
<trkpt lat="47.0994605999572" lon="6.75045109997318"><ele></ele><time>2013-7-30T21:33:37Z</time></trkpt>
<trkpt lat="47.0992587999574" lon="6.75055249997323"><ele></ele><time>2013-7-30T21:33:40Z</time></trkpt>
<trkpt lat="47.0988991999575" lon="6.75058999997335"><ele></ele><time>2013-7-30T21:33:43Z</time></trkpt>
<trkpt lat="47.0986512999577" lon="6.75049439997346"><ele></ele><time>2013-7-30T21:33:46Z</time></trkpt>
<trkpt lat="47.0985155999578" lon="6.75036449997351"><ele></ele><time>2013-7-30T21:33:49Z</time></trkpt>
<trkpt lat="47.0983565999579" lon="6.7501029999736"><ele></ele><time>2013-7-30T21:33:52Z</time></trkpt>
<trkpt lat="47.098198599958" lon="6.75000629997366"><ele></ele><time>2013-7-30T21:33:55Z</time></trkpt>
<trkpt lat="47.0979512999582" lon="6.75000949997374"><ele></ele><time>2013-7-30T21:33:58Z</time></trkpt>
<trkpt lat="47.0975470999583" lon="6.75011349997388"><ele></ele><time>2013-7-30T21:34:1Z</time></trkpt>
<trkpt lat="47.0973669999585" lon="6.75008279997395"><ele></ele><time>2013-7-30T21:34:4Z</time></trkpt>
<trkpt lat="47.0971637999586" lon="6.74995369997402"><ele></ele><time>2013-7-30T21:34:7Z</time></trkpt>
<trkpt lat="47.0970059999587" lon="6.74988989997409"><ele></ele><time>2013-7-30T21:34:10Z</time></trkpt>
<trkpt lat="47.0967357999589" lon="6.74982749997419"><ele></ele><time>2013-7-30T21:34:13Z</time></trkpt>
<trkpt lat="47.0964424999591" lon="6.74966659997431"><ele></ele><time>2013-7-30T21:34:16Z</time></trkpt>
<trkpt lat="47.0963063999592" lon="6.74947079997438"><ele></ele><time>2013-7-30T21:34:19Z</time></trkpt>
<trkpt lat="47.0961027999593" lon="6.74927589997446"><ele></ele><time>2013-7-30T21:34:22Z</time></trkpt>
<trkpt lat="47.0957419999595" lon="6.74911579997461"><ele></ele><time>2013-7-30T21:34:25Z</time></trkpt>
<trkpt lat="47.0952914999598" lon="6.74898989997477"><ele></ele><time>2013-7-30T21:34:28Z</time></trkpt>
<trkpt lat="47.0951111999599" lon="6.74892639997484"><ele></ele><time>2013-7-30T21:34:31Z</time></trkpt>
<trkpt lat="47.09499799996" lon="6.74879609997489"><ele></ele><time>2013-7-30T21:34:34Z</time></trkpt>
<trkpt lat="47.0948158999602" lon="6.74843629997499"><ele></ele><time>2013-7-30T21:34:37Z</time></trkpt>
<trkpt lat="47.0946572999603" lon="6.74824069997508"><ele></ele><time>2013-7-30T21:34:40Z</time></trkpt>
<trkpt lat="47.0944990999604" lon="6.74811099997515"><ele></ele><time>2013-7-30T21:34:43Z</time></trkpt>
<trkpt lat="47.0942511999605" lon="6.74801549997524"><ele></ele><time>2013-7-30T21:34:46Z</time></trkpt>
<trkpt lat="47.0938461999607" lon="6.74798779997538"><ele></ele><time>2013-7-30T21:34:49Z</time></trkpt>
<trkpt lat="47.093486799961" lon="6.7480581999755"><ele></ele><time>2013-7-30T21:34:52Z</time></trkpt>
<trkpt lat="47.0931723999612" lon="6.7481281999756"><ele></ele><time>2013-7-30T21:34:55Z</time></trkpt>
<trkpt lat="47.0929475999613" lon="6.74813109997568"><ele></ele><time>2013-7-30T21:34:58Z</time></trkpt>
<trkpt lat="47.0927220999614" lon="6.74803519997576"><ele></ele><time>2013-7-30T21:35:1Z</time></trkpt>
<trkpt lat="47.0924283999616" lon="6.74780849997588"><ele></ele><time>2013-7-30T21:35:4Z</time></trkpt>
<trkpt lat="47.0922464999618" lon="6.74748149997599"><ele></ele><time>2013-7-30T21:35:7Z</time></trkpt>
<trkpt lat="47.0921778999618" lon="6.74728489997603"><ele></ele><time>2013-7-30T21:35:10Z</time></trkpt>
<trkpt lat="47.0921987999619" lon="6.74702119997605"><ele></ele><time>2013-7-30T21:35:13Z</time></trkpt>
<trkpt lat="47.0921754999618" lon="6.74688979997607"><ele></ele><time>2013-7-30T21:35:16Z</time></trkpt>
<trkpt lat="47.091971899962" lon="6.74669479997617"><ele></ele><time>2013-7-30T21:35:19Z</time></trkpt>
<trkpt lat="47.0918586999621" lon="6.74656459997622"><ele></ele><time>2013-7-30T21:35:22Z</time></trkpt>
<trkpt lat="47.0917893999622" lon="6.74626909997627"><ele></ele><time>2013-7-30T21:35:25Z</time></trkpt>
<trkpt lat="47.0917655999622" lon="6.7460388999763"><ele></ele><time>2013-7-30T21:35:28Z</time></trkpt>
<trkpt lat="47.0916972999623" lon="6.74590809997634"><ele></ele><time>2013-7-30T21:35:31Z</time></trkpt>
<trkpt lat="47.0913814999625" lon="6.74574749997647"><ele></ele><time>2013-7-30T21:35:34Z</time></trkpt>
<trkpt lat="47.0912009999626" lon="6.74565109997655"><ele></ele><time>2013-7-30T21:35:37Z</time></trkpt>
<trkpt lat="47.0910875999627" lon="6.7454878999766"><ele></ele><time>2013-7-30T21:35:40Z</time></trkpt>
<trkpt lat="47.0909959999628" lon="6.74522569997665"><ele></ele><time>2013-7-30T21:35:43Z</time></trkpt>
<trkpt lat="47.0909279999629" lon="6.7451277999767"><ele></ele><time>2013-7-30T21:35:46Z</time></trkpt>
<trkpt lat="47.090769599963" lon="6.74496519997676"><ele></ele><time>2013-7-30T21:35:49Z</time></trkpt>
<trkpt lat="47.0907010999631" lon="6.74480149997681"><ele></ele><time>2013-7-30T21:35:52Z</time></trkpt>
<trkpt lat="47.0906318999631" lon="6.74450599997686"><ele></ele><time>2013-7-30T21:35:55Z</time></trkpt>
<trkpt lat="47.0905416999631" lon="6.7444742999769"><ele></ele><time>2013-7-30T21:35:58Z</time></trkpt>
<trkpt lat="47.0903164999633" lon="6.74441129997698"><ele></ele><time>2013-7-30T21:36:1Z</time></trkpt>
<trkpt lat="47.0902258999634" lon="6.74431369997702"><ele></ele><time>2013-7-30T21:36:4Z</time></trkpt>
<trkpt lat="47.0902025999634" lon="6.74418229997705"><ele></ele><time>2013-7-30T21:36:7Z</time></trkpt>
<trkpt lat="47.0901783999634" lon="6.74388629997708"><ele></ele><time>2013-7-30T21:36:10Z</time></trkpt>
<trkpt lat="47.0901323999635" lon="6.74372219997711"><ele></ele><time>2013-7-30T21:36:13Z</time></trkpt>
<trkpt lat="47.0899502999637" lon="6.74336239997722"><ele></ele><time>2013-7-30T21:36:16Z</time></trkpt>
<trkpt lat="47.0899038999637" lon="6.74313249997725"><ele></ele><time>2013-7-30T21:36:19Z</time></trkpt>
<trkpt lat="47.0899474999637" lon="6.74290149997727"><ele></ele><time>2013-7-30T21:36:22Z</time></trkpt>
<trkpt lat="47.0899245999638" lon="6.74283589997728"><ele></ele><time>2013-7-30T21:36:25Z</time></trkpt>
<trkpt lat="47.0898342999638" lon="6.74277119997733"><ele></ele><time>2013-7-30T21:36:28Z</time></trkpt>
<trkpt lat="47.0896760999641" lon="6.74264159997738"><ele></ele><time>2013-7-30T21:36:31Z</time></trkpt>
<trkpt lat="47.089584899964" lon="6.74244519997744"><ele></ele><time>2013-7-30T21:36:34Z</time></trkpt>
<trkpt lat="47.0895152999641" lon="6.7420838999775"><ele></ele><time>2013-7-30T21:36:37Z</time></trkpt>
<trkpt lat="47.0894694999642" lon="6.74195279997754"><ele></ele><time>2013-7-30T21:36:40Z</time></trkpt>
<trkpt lat="47.0893110999643" lon="6.7417901999776"><ele></ele><time>2013-7-30T21:36:43Z</time></trkpt>
<trkpt lat="47.0892877999643" lon="6.74165879997763"><ele></ele><time>2013-7-30T21:36:46Z</time></trkpt>
<trkpt lat="47.0891494999645" lon="6.74110089997773"><ele></ele><time>2013-7-30T21:36:49Z</time></trkpt>
<trkpt lat="47.0890129999646" lon="6.74083929997781"><ele></ele><time>2013-7-30T21:36:52Z</time></trkpt>
<trkpt lat="47.0887856999648" lon="6.74044709997792"><ele></ele><time>2013-7-30T21:36:55Z</time></trkpt>
<trkpt lat="47.0886940999649" lon="6.74018489997799"><ele></ele><time>2013-7-30T21:36:58Z</time></trkpt>
<trkpt lat="47.088646199965" lon="6.73969159997805"><ele></ele><time>2013-7-30T21:37:1Z</time></trkpt>
<trkpt lat="47.0885756999652" lon="6.73919869997813"><ele></ele><time>2013-7-30T21:37:4Z</time></trkpt>
<trkpt lat="47.0885284999652" lon="6.73883709997818"><ele></ele><time>2013-7-30T21:37:7Z</time></trkpt>
<trkpt lat="47.0885276999652" lon="6.73870539997819"><ele></ele><time>2013-7-30T21:37:10Z</time></trkpt>
<trkpt lat="47.0885933999652" lon="6.7384081999782"><ele></ele><time>2013-7-30T21:37:13Z</time></trkpt>
<trkpt lat="47.0886143999652" lon="6.73817739997823"><ele></ele><time>2013-7-30T21:37:16Z</time></trkpt>
<trkpt lat="47.0885682999653" lon="6.73798049997826"><ele></ele><time>2013-7-30T21:37:19Z</time></trkpt>
<trkpt lat="47.0884537999654" lon="6.73765269997833"><ele></ele><time>2013-7-30T21:37:22Z</time></trkpt>
<trkpt lat="47.0882033999657" lon="6.73716209997847"><ele></ele><time>2013-7-30T21:37:25Z</time></trkpt>
<trkpt lat="47.0881796999657" lon="6.73696489997851"><ele></ele><time>2013-7-30T21:37:28Z</time></trkpt>
<trkpt lat="47.0882011999657" lon="6.73679999997851"><ele></ele><time>2013-7-30T21:37:31Z</time></trkpt>
<trkpt lat="47.0882674999658" lon="6.73660149997851"><ele></ele><time>2013-7-30T21:37:34Z</time></trkpt>
<trkpt lat="47.0882664999657" lon="6.73643689997853"><ele></ele><time>2013-7-30T21:37:37Z</time></trkpt>
<trkpt lat="47.0881967999658" lon="6.73607569997859"><ele></ele><time>2013-7-30T21:37:40Z</time></trkpt>
<trkpt lat="47.0882182999658" lon="6.7359106999786"><ele></ele><time>2013-7-30T21:37:43Z</time></trkpt>
<trkpt lat="47.0882844999658" lon="6.73571229997859"><ele></ele><time>2013-7-30T21:37:46Z</time></trkpt>
<trkpt lat="47.0883059999659" lon="6.7355473999786"><ele></ele><time>2013-7-30T21:37:49Z</time></trkpt>
<trkpt lat="47.0882591999661" lon="6.73525169997865"><ele></ele><time>2013-7-30T21:37:52Z</time></trkpt>
<trkpt lat="47.088168299966" lon="6.7350882999787"><ele></ele><time>2013-7-30T21:37:55Z</time></trkpt>
<trkpt lat="47.0880095999662" lon="6.73489279997878"><ele></ele><time>2013-7-30T21:37:58Z</time></trkpt>
<trkpt lat="47.0878730999662" lon="6.73463119997886"><ele></ele><time>2013-7-30T21:38:1Z</time></trkpt>
<trkpt lat="47.0878716999663" lon="6.73440069997887"><ele></ele><time>2013-7-30T21:38:4Z</time></trkpt>
<trkpt lat="47.0879370999663" lon="6.73407059997889"><ele></ele><time>2013-7-30T21:38:7Z</time></trkpt>
<trkpt lat="47.0880260999662" lon="6.73390479997888"><ele></ele><time>2013-7-30T21:38:10Z</time></trkpt>
<trkpt lat="47.0881605999662" lon="6.73383719997883"><ele></ele><time>2013-7-30T21:38:13Z</time></trkpt>
<trkpt lat="47.0882273999662" lon="6.73373749997883"><ele></ele><time>2013-7-30T21:38:16Z</time></trkpt>
<trkpt lat="47.0882713999661" lon="6.73357229997882"><ele></ele><time>2013-7-30T21:38:19Z</time></trkpt>
<trkpt lat="47.0882474999662" lon="6.73334209997885"><ele></ele><time>2013-7-30T21:38:22Z</time></trkpt>
<trkpt lat="47.0881554999663" lon="6.73301409997893"><ele></ele><time>2013-7-30T21:38:25Z</time></trkpt>
<trkpt lat="47.0881538999664" lon="6.73275069997895"><ele></ele><time>2013-7-30T21:38:28Z</time></trkpt>
<trkpt lat="47.0881499999665" lon="6.73212519997902"><ele></ele><time>2013-7-30T21:38:31Z</time></trkpt>
<trkpt lat="47.0880801999666" lon="6.73173099997908"><ele></ele><time>2013-7-30T21:38:34Z</time></trkpt>
<trkpt lat="47.0880328999667" lon="6.73136939997913"><ele></ele><time>2013-7-30T21:38:37Z</time></trkpt>
<trkpt lat="47.0880314999667" lon="6.73113899997917"><ele></ele><time>2013-7-30T21:38:40Z</time></trkpt>
<trkpt lat="47.0880960999667" lon="6.73067709997919"><ele></ele><time>2013-7-30T21:38:43Z</time></trkpt>
<trkpt lat="47.0880936999668" lon="6.73028209997923"><ele></ele><time>2013-7-30T21:38:46Z</time></trkpt>
<trkpt lat="47.0880699999668" lon="6.73008479997926"><ele></ele><time>2013-7-30T21:38:49Z</time></trkpt>
<trkpt lat="47.0880235999669" lon="6.7298549999793"><ele></ele><time>2013-7-30T21:38:52Z</time></trkpt>
<trkpt lat="47.088021799967" lon="6.72955859997933"><ele></ele><time>2013-7-30T21:38:55Z</time></trkpt>
<trkpt lat="47.088087599967" lon="6.72929439997933"><ele></ele><time>2013-7-30T21:38:58Z</time></trkpt>
<trkpt lat="47.0882427999669" lon="6.72893009997932"><ele></ele><time>2013-7-30T21:39:1Z</time></trkpt>
<trkpt lat="47.0882860999669" lon="6.72866609997933"><ele></ele><time>2013-7-30T21:39:4Z</time></trkpt>
<trkpt lat="47.088373599967" lon="6.72826989997934"><ele></ele><time>2013-7-30T21:39:7Z</time></trkpt>
<trkpt lat="47.088462499967" lon="6.72810409997934"><ele></ele><time>2013-7-30T21:39:10Z</time></trkpt>
<trkpt lat="47.0885745999669" lon="6.7280366999793"><ele></ele><time>2013-7-30T21:39:13Z</time></trkpt>
<trkpt lat="47.0887306999668" lon="6.72783709997926"><ele></ele><time>2013-7-30T21:39:16Z</time></trkpt>
<trkpt lat="47.0887973999668" lon="6.72770449997926"><ele></ele><time>2013-7-30T21:39:19Z</time></trkpt>
<trkpt lat="47.088796199967" lon="6.72750699997927"><ele></ele><time>2013-7-30T21:39:22Z</time></trkpt>
<trkpt lat="47.0888378999669" lon="6.72697959997932"><ele></ele><time>2013-7-30T21:39:25Z</time></trkpt>
<trkpt lat="47.0889030999669" lon="6.72661649997934"><ele></ele><time>2013-7-30T21:39:28Z</time></trkpt>
<trkpt lat="47.0890138999669" lon="6.72635159997933"><ele></ele><time>2013-7-30T21:39:31Z</time></trkpt>
<trkpt lat="47.0893470999669" lon="6.72568869997928"><ele></ele><time>2013-7-30T21:39:34Z</time></trkpt>
<trkpt lat="47.0893684999669" lon="6.72552369997929"><ele></ele><time>2013-7-30T21:39:37Z</time></trkpt>
<trkpt lat="47.0893227999669" lon="6.72539269997931"><ele></ele><time>2013-7-30T21:39:40Z</time></trkpt>
<trkpt lat="47.0891397999671" lon="6.72490119997943"><ele></ele><time>2013-7-30T21:39:43Z</time></trkpt>
<trkpt lat="47.0890262999672" lon="6.72473809997949"><ele></ele><time>2013-7-30T21:39:46Z</time></trkpt>
<trkpt lat="47.0888907999673" lon="6.72464109997954"><ele></ele><time>2013-7-30T21:39:49Z</time></trkpt>
<trkpt lat="47.0888216999674" lon="6.72437859997959"><ele></ele><time>2013-7-30T21:39:52Z</time></trkpt>
<trkpt lat="47.0887081999674" lon="6.72421549997965"><ele></ele><time>2013-7-30T21:39:55Z</time></trkpt>
<trkpt lat="47.0885491999676" lon="6.72395419997973"><ele></ele><time>2013-7-30T21:39:58Z</time></trkpt>
<trkpt lat="47.0884121999677" lon="6.72362679997981"><ele></ele><time>2013-7-30T21:40:1Z</time></trkpt>
<trkpt lat="47.0882974999678" lon="6.72326609997989"><ele></ele><time>2013-7-30T21:40:4Z</time></trkpt>
<trkpt lat="47.0882518999679" lon="6.72316799997991"><ele></ele><time>2013-7-30T21:40:7Z</time></trkpt>
<trkpt lat="47.088116199968" lon="6.72303809997998"><ele></ele><time>2013-7-30T21:40:10Z</time></trkpt>
<trkpt lat="47.088048099968" lon="6.72294019998002"><ele></ele><time>2013-7-30T21:40:13Z</time></trkpt>
<trkpt lat="47.0880014999681" lon="6.72267739998005"><ele></ele><time>2013-7-30T21:40:16Z</time></trkpt>
<trkpt lat="47.0878189999682" lon="6.72225179998015"><ele></ele><time>2013-7-30T21:40:19Z</time></trkpt>
<trkpt lat="47.0877955999683" lon="6.72212039998018"><ele></ele><time>2013-7-30T21:40:22Z</time></trkpt>
<trkpt lat="47.0878166999683" lon="6.72188969998019"><ele></ele><time>2013-7-30T21:40:25Z</time></trkpt>
<trkpt lat="47.0878810999684" lon="6.72139489998022"><ele></ele><time>2013-7-30T21:40:28Z</time></trkpt>
<trkpt lat="47.0879247999684" lon="6.72119679998024"><ele></ele><time>2013-7-30T21:40:31Z</time></trkpt>
<trkpt lat="47.0879237999684" lon="6.72103219998025"><ele></ele><time>2013-7-30T21:40:34Z</time></trkpt>
<trkpt lat="47.0879220999684" lon="6.72076879998028"><ele></ele><time>2013-7-30T21:40:37Z</time></trkpt>
<trkpt lat="47.0879208999685" lon="6.7205712999803"><ele></ele><time>2013-7-30T21:40:40Z</time></trkpt>
<trkpt lat="47.0879868999685" lon="6.7203398999803"><ele></ele><time>2013-7-30T21:40:43Z</time></trkpt>
<trkpt lat="47.0880083999685" lon="6.72017499998031"><ele></ele><time>2013-7-30T21:40:46Z</time></trkpt>
<trkpt lat="47.0879618999686" lon="6.71994509998035"><ele></ele><time>2013-7-30T21:40:49Z</time></trkpt>
<trkpt lat="47.0878247999687" lon="6.71958479998044"><ele></ele><time>2013-7-30T21:40:52Z</time></trkpt>
<trkpt lat="47.0878005999687" lon="6.71932169998047"><ele></ele><time>2013-7-30T21:40:55Z</time></trkpt>
<trkpt lat="47.0877964999689" lon="6.71866319998054"><ele></ele><time>2013-7-30T21:40:58Z</time></trkpt>
<trkpt lat="47.0877725999689" lon="6.71843309998058"><ele></ele><time>2013-7-30T21:41:1Z</time></trkpt>
<trkpt lat="47.0875661999691" lon="6.71781029998071"><ele></ele><time>2013-7-30T21:41:4Z</time></trkpt>
<trkpt lat="47.0874735999692" lon="6.71738349998078"><ele></ele><time>2013-7-30T21:41:7Z</time></trkpt>
<trkpt lat="47.0873798999694" lon="6.71679209998088"><ele></ele><time>2013-7-30T21:41:10Z</time></trkpt>
<trkpt lat="47.0872851999696" lon="6.71603609998099"><ele></ele><time>2013-7-30T21:41:13Z</time></trkpt>
<trkpt lat="47.0872139999697" lon="6.71544439998108"><ele></ele><time>2013-7-30T21:41:16Z</time></trkpt>
<trkpt lat="47.0871452999698" lon="6.71524779998113"><ele></ele><time>2013-7-30T21:41:19Z</time></trkpt>
<trkpt lat="47.0869866999698" lon="6.7150523999812"><ele></ele><time>2013-7-30T21:41:22Z</time></trkpt>
<trkpt lat="47.0862847999704" lon="6.71430459998151"><ele></ele><time>2013-7-30T21:41:25Z</time></trkpt>
<trkpt lat="47.0861261999706" lon="6.71410919998159"><ele></ele><time>2013-7-30T21:41:28Z</time></trkpt>
<trkpt lat="47.0860124999706" lon="6.71391319998164"><ele></ele><time>2013-7-30T21:41:31Z</time></trkpt>
<trkpt lat="47.0858525999707" lon="6.71352019998174"><ele></ele><time>2013-7-30T21:41:34Z</time></trkpt>
<trkpt lat="47.0858054999708" lon="6.71319159998179"><ele></ele><time>2013-7-30T21:41:37Z</time></trkpt>
<trkpt lat="47.0857338999709" lon="6.71253409998188"><ele></ele><time>2013-7-30T21:41:40Z</time></trkpt>
<trkpt lat="47.085687499971" lon="6.71230429998193"><ele></ele><time>2013-7-30T21:41:43Z</time></trkpt>
<trkpt lat="47.0855962999711" lon="6.71210799998197"><ele></ele><time>2013-7-30T21:41:46Z</time></trkpt>
<trkpt lat="47.0854373999713" lon="6.71187959998205"><ele></ele><time>2013-7-30T21:41:49Z</time></trkpt>
<trkpt lat="47.0851883999714" lon="6.71161959998217"><ele></ele><time>2013-7-30T21:41:52Z</time></trkpt>
<trkpt lat="47.0850065999715" lon="6.71132579998225"><ele></ele><time>2013-7-30T21:41:55Z</time></trkpt>
<trkpt lat="47.0849157999717" lon="6.7111952999823"><ele></ele><time>2013-7-30T21:41:58Z</time></trkpt>
<trkpt lat="47.0847350999717" lon="6.71106609998238"><ele></ele><time>2013-7-30T21:42:1Z</time></trkpt>
<trkpt lat="47.084417599972" lon="6.71064239998253"><ele></ele><time>2013-7-30T21:42:4Z</time></trkpt>
<trkpt lat="47.0842584999721" lon="6.71038119998261"><ele></ele><time>2013-7-30T21:42:7Z</time></trkpt>
<trkpt lat="47.0841893999722" lon="6.71011869998267"><ele></ele><time>2013-7-30T21:42:10Z</time></trkpt>
<trkpt lat="47.0841872999722" lon="6.7097894999827"><ele></ele><time>2013-7-30T21:42:13Z</time></trkpt>
<trkpt lat="47.0842078999723" lon="6.70949289998272"><ele></ele><time>2013-7-30T21:42:16Z</time></trkpt>
<trkpt lat="47.0842286999723" lon="6.70922929998274"><ele></ele><time>2013-7-30T21:42:19Z</time></trkpt>
<trkpt lat="47.0842044999724" lon="6.70896619998278"><ele></ele><time>2013-7-30T21:42:22Z</time></trkpt>
<trkpt lat="47.0840907999725" lon="6.70877019998284"><ele></ele><time>2013-7-30T21:42:25Z</time></trkpt>
<trkpt lat="47.0840004999725" lon="6.70870559998288"><ele></ele><time>2013-7-30T21:42:28Z</time></trkpt>
<trkpt lat="47.0838877999726" lon="6.70867419998292"><ele></ele><time>2013-7-30T21:42:31Z</time></trkpt>
<trkpt lat="47.0837537999726" lon="6.70880769998295"><ele></ele><time>2013-7-30T21:42:34Z</time></trkpt>
<trkpt lat="47.0835296999728" lon="6.70894249998301"><ele></ele><time>2013-7-30T21:42:37Z</time></trkpt>
<trkpt lat="47.0833058999728" lon="6.70911009998308"><ele></ele><time>2013-7-30T21:42:40Z</time></trkpt>
<trkpt lat="47.0832169999729" lon="6.70927599998308"><ele></ele><time>2013-7-30T21:42:43Z</time></trkpt>
<trkpt lat="47.0831736999729" lon="6.70953989998308"><ele></ele><time>2013-7-30T21:42:46Z</time></trkpt>
<trkpt lat="47.0831564999727" lon="6.71036319998299"><ele></ele><time>2013-7-30T21:42:49Z</time></trkpt>
<trkpt lat="47.0831360999726" lon="6.71069269998296"><ele></ele><time>2013-7-30T21:42:52Z</time></trkpt>
<trkpt lat="47.0830695999727" lon="6.71085829998298"><ele></ele><time>2013-7-30T21:42:55Z</time></trkpt>
<trkpt lat="47.0829575999727" lon="6.71092559998301"><ele></ele><time>2013-7-30T21:42:58Z</time></trkpt>
<trkpt lat="47.0828226999728" lon="6.71092749998306"><ele></ele><time>2013-7-30T21:43:1Z</time></trkpt>
<trkpt lat="47.0827095999729" lon="6.7108301999831"><ele></ele><time>2013-7-30T21:43:4Z</time></trkpt>
<trkpt lat="47.082641099973" lon="6.71066659998314"><ele></ele><time>2013-7-30T21:43:7Z</time></trkpt>
<trkpt lat="47.0824116999732" lon="6.70994539998329"><ele></ele><time>2013-7-30T21:43:10Z</time></trkpt>
<trkpt lat="47.0823872999733" lon="6.70964939998333"><ele></ele><time>2013-7-30T21:43:13Z</time></trkpt>
<trkpt lat="47.0823404999733" lon="6.70935379998338"><ele></ele><time>2013-7-30T21:43:16Z</time></trkpt>
<trkpt lat="47.0823387999734" lon="6.7090903999834"><ele></ele><time>2013-7-30T21:43:19Z</time></trkpt>
<trkpt lat="47.0823597999734" lon="6.70885969998342"><ele></ele><time>2013-7-30T21:43:22Z</time></trkpt>
<trkpt lat="47.0823587999734" lon="6.70869509998345"><ele></ele><time>2013-7-30T21:43:25Z</time></trkpt>
<trkpt lat="47.0822437999736" lon="6.70830159998352"><ele></ele><time>2013-7-30T21:43:28Z</time></trkpt>
<trkpt lat="47.0820163999737" lon="6.70790959998363"><ele></ele><time>2013-7-30T21:43:31Z</time></trkpt>
<trkpt lat="47.0819688999738" lon="6.7075151999837"><ele></ele><time>2013-7-30T21:43:34Z</time></trkpt>
<trkpt lat="47.081877099974" lon="6.70722009998376"><ele></ele><time>2013-7-30T21:43:37Z</time></trkpt>
<trkpt lat="47.081853399974" lon="6.70702289998379"><ele></ele><time>2013-7-30T21:43:40Z</time></trkpt>
<trkpt lat="47.0818270999741" lon="6.70643069998386"><ele></ele><time>2013-7-30T21:43:43Z</time></trkpt>
<trkpt lat="47.0818249999741" lon="6.70610149998389"><ele></ele><time>2013-7-30T21:43:46Z</time></trkpt>
<trkpt lat="47.0817784999742" lon="6.70587169998393"><ele></ele><time>2013-7-30T21:43:49Z</time></trkpt>
<trkpt lat="47.0816414999743" lon="6.70554429998401"><ele></ele><time>2013-7-30T21:43:52Z</time></trkpt>
<trkpt lat="47.0815511999744" lon="6.70547969998405"><ele></ele><time>2013-7-30T21:43:55Z</time></trkpt>
<trkpt lat="47.0814836999744" lon="6.70548059998407"><ele></ele><time>2013-7-30T21:43:58Z</time></trkpt>
<trkpt lat="47.0814168999745" lon="6.70558029998408"><ele></ele><time>2013-7-30T21:44:1Z</time></trkpt>
<trkpt lat="47.0813964999744" lon="6.70590979998406"><ele></ele><time>2013-7-30T21:44:4Z</time></trkpt>
<trkpt lat="47.0813340999743" lon="6.706700799984"><ele></ele><time>2013-7-30T21:44:7Z</time></trkpt>
<trkpt lat="47.0812697999743" lon="6.70719549998397"><ele></ele><time>2013-7-30T21:44:10Z</time></trkpt>
<trkpt lat="47.0811373999743" lon="6.70759239998397"><ele></ele><time>2013-7-30T21:44:13Z</time></trkpt>
<trkpt lat="47.0809603999743" lon="6.70805569998398"><ele></ele><time>2013-7-30T21:44:16Z</time></trkpt>
<trkpt lat="47.0808046999743" lon="6.70832119998401"><ele></ele><time>2013-7-30T21:44:19Z</time></trkpt>
<trkpt lat="47.0807159999744" lon="6.70851989998402"><ele></ele><time>2013-7-30T21:44:22Z</time></trkpt>
<trkpt lat="47.0806501999744" lon="6.70878419998401"><ele></ele><time>2013-7-30T21:44:25Z</time></trkpt>
<trkpt lat="47.0805610999744" lon="6.70891709998404"><ele></ele><time>2013-7-30T21:44:28Z</time></trkpt>
<trkpt lat="47.0802928999745" lon="6.7091840999841"><ele></ele><time>2013-7-30T21:44:31Z</time></trkpt>
<trkpt lat="47.0801356999746" lon="6.70921919998415"><ele></ele><time>2013-7-30T21:44:34Z</time></trkpt>
<trkpt lat="47.0799559999747" lon="6.7092545999842"><ele></ele><time>2013-7-30T21:44:37Z</time></trkpt>
<trkpt lat="47.0798217999748" lon="6.70935519998425"><ele></ele><time>2013-7-30T21:44:40Z</time></trkpt>
<trkpt lat="47.0796430999748" lon="6.70955509998428"><ele></ele><time>2013-7-30T21:44:43Z</time></trkpt>
<trkpt lat="47.0794860999749" lon="6.70962309998433"><ele></ele><time>2013-7-30T21:44:46Z</time></trkpt>
<trkpt lat="47.0790596999751" lon="6.70976059998446"><ele></ele><time>2013-7-30T21:44:49Z</time></trkpt>
<trkpt lat="47.0786996999754" lon="6.70973259998459"><ele></ele><time>2013-7-30T21:44:52Z</time></trkpt>
<trkpt lat="47.0784294999754" lon="6.70967039998469"><ele></ele><time>2013-7-30T21:44:55Z</time></trkpt>
<trkpt lat="47.0781360999756" lon="6.7095097999848"><ele></ele><time>2013-7-30T21:44:58Z</time></trkpt>
<trkpt lat="47.077773999976" lon="6.70915259998497"><ele></ele><time>2013-7-30T21:45:1Z</time></trkpt>
<trkpt lat="47.077502499976" lon="6.70889299998509"><ele></ele><time>2013-7-30T21:45:4Z</time></trkpt>
<trkpt lat="47.0773669999761" lon="6.70879599998514"><ele></ele><time>2013-7-30T21:45:7Z</time></trkpt>
<trkpt lat="47.0772763999763" lon="6.70869849998518"><ele></ele><time>2013-7-30T21:45:10Z</time></trkpt>
<trkpt lat="47.0772076999763" lon="6.70850189998523"><ele></ele><time>2013-7-30T21:45:13Z</time></trkpt>
<trkpt lat="47.0770716999764" lon="6.7083391999853"><ele></ele><time>2013-7-30T21:45:16Z</time></trkpt>
<trkpt lat="47.0765967999767" lon="6.70791769998549"><ele></ele><time>2013-7-30T21:45:19Z</time></trkpt>
<trkpt lat="47.0763710999769" lon="6.70778909998558"><ele></ele><time>2013-7-30T21:45:22Z</time></trkpt>
<trkpt lat="47.076145799977" lon="6.70772639998567"><ele></ele><time>2013-7-30T21:45:25Z</time></trkpt>
<trkpt lat="47.0760332999771" lon="6.70772789998571"><ele></ele><time>2013-7-30T21:45:28Z</time></trkpt>
<trkpt lat="47.0759214999772" lon="6.70782819998573"><ele></ele><time>2013-7-30T21:45:31Z</time></trkpt>
<trkpt lat="47.0756541999772" lon="6.70822689998579"><ele></ele><time>2013-7-30T21:45:34Z</time></trkpt>
<trkpt lat="47.0755425999773" lon="6.70836009998582"><ele></ele><time>2013-7-30T21:45:37Z</time></trkpt>
<trkpt lat="47.0753410999774" lon="6.70849449998587"><ele></ele><time>2013-7-30T21:45:40Z</time></trkpt>
<trkpt lat="47.0752519999773" lon="6.70862739998588"><ele></ele><time>2013-7-30T21:45:43Z</time></trkpt>
<trkpt lat="47.0752081999773" lon="6.70882549998588"><ele></ele><time>2013-7-30T21:45:46Z</time></trkpt>
<trkpt lat="47.0750984999774" lon="6.70925489998588"><ele></ele><time>2013-7-30T21:45:49Z</time></trkpt>
<trkpt lat="47.0749667999774" lon="6.70975049998587"><ele></ele><time>2013-7-30T21:45:52Z</time></trkpt>
<trkpt lat="47.0747897999774" lon="6.71021369998589"><ele></ele><time>2013-7-30T21:45:55Z</time></trkpt>
<trkpt lat="47.0746331999774" lon="6.71034749998592"><ele></ele><time>2013-7-30T21:45:58Z</time></trkpt>
<trkpt lat="47.0745657999775" lon="6.71034849998595"><ele></ele><time>2013-7-30T21:46:1Z</time></trkpt>
<trkpt lat="47.0744749999775" lon="6.71021799998599"><ele></ele><time>2013-7-30T21:46:4Z</time></trkpt>
<trkpt lat="47.0744053999776" lon="6.70988979998605"><ele></ele><time>2013-7-30T21:46:7Z</time></trkpt>
<trkpt lat="47.0743589999777" lon="6.70965999998608"><ele></ele><time>2013-7-30T21:46:10Z</time></trkpt>
<trkpt lat="47.0741757999779" lon="6.7091357999862"><ele></ele><time>2013-7-30T21:46:13Z</time></trkpt>
<trkpt lat="47.0739023999781" lon="6.70857989998635"><ele></ele><time>2013-7-30T21:46:16Z</time></trkpt>
<trkpt lat="47.0736984999783" lon="6.70835229998645"><ele></ele><time>2013-7-30T21:46:19Z</time></trkpt>
<trkpt lat="47.0733819999785" lon="6.70809329998658"><ele></ele><time>2013-7-30T21:46:22Z</time></trkpt>
<trkpt lat="47.0730879999787" lon="6.7078339999867"><ele></ele><time>2013-7-30T21:46:25Z</time></trkpt>
<trkpt lat="47.072680499979" lon="6.70741159998689"><ele></ele><time>2013-7-30T21:46:28Z</time></trkpt>
<trkpt lat="47.0723406999792" lon="6.70702129998705"><ele></ele><time>2013-7-30T21:46:31Z</time></trkpt>
<trkpt lat="47.0719773999795" lon="6.70646669998722"><ele></ele><time>2013-7-30T21:46:34Z</time></trkpt>
<trkpt lat="47.0712730999801" lon="6.70535719998759"><ele></ele><time>2013-7-30T21:46:37Z</time></trkpt>
<trkpt lat="47.0711593999802" lon="6.70516119998764"><ele></ele><time>2013-7-30T21:46:40Z</time></trkpt>
<trkpt lat="47.0710234999803" lon="6.7049984999877"><ele></ele><time>2013-7-30T21:46:43Z</time></trkpt>
<trkpt lat="47.0706835999805" lon="6.70460819998786"><ele></ele><time>2013-7-30T21:46:46Z</time></trkpt>
<trkpt lat="47.0702760999808" lon="6.70418589998804"><ele></ele><time>2013-7-30T21:46:49Z</time></trkpt>
<trkpt lat="47.0701632999809" lon="6.7041215999881"><ele></ele><time>2013-7-30T21:46:52Z</time></trkpt>
<trkpt lat="47.070140199981" lon="6.70402319998811"><ele></ele><time>2013-7-30T21:46:55Z</time></trkpt>
<trkpt lat="47.070116399981" lon="6.70382599998814"><ele></ele><time>2013-7-30T21:46:58Z</time></trkpt>
<trkpt lat="47.070070599981" lon="6.70369499998817"><ele></ele><time>2013-7-30T21:47:1Z</time></trkpt>
<trkpt lat="47.0697992999812" lon="6.70346829998829"><ele></ele><time>2013-7-30T21:47:4Z</time></trkpt>
<trkpt lat="47.0697090999812" lon="6.70343659998831"><ele></ele><time>2013-7-30T21:47:7Z</time></trkpt>
<trkpt lat="47.0695287999814" lon="6.70337329998838"><ele></ele><time>2013-7-30T21:47:10Z</time></trkpt>
<trkpt lat="47.0693480999814" lon="6.70324409998846"><ele></ele><time>2013-7-30T21:47:13Z</time></trkpt>
<trkpt lat="47.0692126999817" lon="6.7031800999885"><ele></ele><time>2013-7-30T21:47:16Z</time></trkpt>
<trkpt lat="47.0691229999816" lon="6.70321429998854"><ele></ele><time>2013-7-30T21:47:19Z</time></trkpt>
<trkpt lat="47.0689665999817" lon="6.70338099998857"><ele></ele><time>2013-7-30T21:47:22Z</time></trkpt>
<trkpt lat="47.0687656999817" lon="6.70361409998863"><ele></ele><time>2013-7-30T21:47:25Z</time></trkpt>
<trkpt lat="47.0685420999819" lon="6.70381469998867"><ele></ele><time>2013-7-30T21:47:28Z</time></trkpt>
<trkpt lat="47.068273399982" lon="6.70398299998875"><ele></ele><time>2013-7-30T21:47:31Z</time></trkpt>
<trkpt lat="47.068183999982" lon="6.70408289998877"><ele></ele><time>2013-7-30T21:47:34Z</time></trkpt>
<trkpt lat="47.067962999982" lon="6.70467839998878"><ele></ele><time>2013-7-30T21:47:37Z</time></trkpt>
<trkpt lat="47.067741899982" lon="6.7052738999888"><ele></ele><time>2013-7-30T21:47:40Z</time></trkpt>
<trkpt lat="47.0675838999822" lon="6.70517729998886"><ele></ele><time>2013-7-30T21:47:43Z</time></trkpt>
<trkpt lat="47.0672265999823" lon="6.70557719998895"><ele></ele><time>2013-7-30T21:47:46Z</time></trkpt>
<trkpt lat="47.0669817999824" lon="6.70597549998899"><ele></ele><time>2013-7-30T21:47:49Z</time></trkpt>
<trkpt lat="47.0668711999823" lon="6.706273199989"><ele></ele><time>2013-7-30T21:47:52Z</time></trkpt>
<trkpt lat="47.0667829999824" lon="6.706537699989"><ele></ele><time>2013-7-30T21:47:55Z</time></trkpt>
<trkpt lat="47.0667612999824" lon="6.706669599989"><ele></ele><time>2013-7-30T21:47:58Z</time></trkpt>
<trkpt lat="47.0667625999823" lon="6.70686709998898"><ele></ele><time>2013-7-30T21:48:1Z</time></trkpt>
<trkpt lat="47.0668762999822" lon="6.70706299998891"><ele></ele><time>2013-7-30T21:48:4Z</time></trkpt>
<trkpt lat="47.0670342999821" lon="6.70715959998885"><ele></ele><time>2013-7-30T21:48:7Z</time></trkpt>
<trkpt lat="47.0675739999818" lon="6.70715219998867"><ele></ele><time>2013-7-30T21:48:10Z</time></trkpt>
<trkpt lat="47.0676195999818" lon="6.70725039998864"><ele></ele><time>2013-7-30T21:48:13Z</time></trkpt>
<trkpt lat="47.0677357999817" lon="6.70784119998854"><ele></ele><time>2013-7-30T21:48:16Z</time></trkpt>
<trkpt lat="47.0678492999816" lon="6.70800419998849"><ele></ele><time>2013-7-30T21:48:19Z</time></trkpt>
<trkpt lat="47.0680976999814" lon="6.70816539998839"><ele></ele><time>2013-7-30T21:48:22Z</time></trkpt>
<trkpt lat="47.0685036999811" lon="6.70835729998823"><ele></ele><time>2013-7-30T21:48:25Z</time></trkpt>
<trkpt lat="47.068615899981" lon="6.7083228999882"><ele></ele><time>2013-7-30T21:48:28Z</time></trkpt>
<trkpt lat="47.0688190999809" lon="6.70845179998811"><ele></ele><time>2013-7-30T21:48:31Z</time></trkpt>
<trkpt lat="47.0689096999809" lon="6.70854929998806"><ele></ele><time>2013-7-30T21:48:34Z</time></trkpt>
<trkpt lat="47.0689102999809" lon="6.70864799998806"><ele></ele><time>2013-7-30T21:48:37Z</time></trkpt>
<trkpt lat="47.0688434999809" lon="6.70874769998807"><ele></ele><time>2013-7-30T21:48:40Z</time></trkpt>
<trkpt lat="47.0682150999812" lon="6.70895369998826"><ele></ele><time>2013-7-30T21:48:43Z</time></trkpt>
<trkpt lat="47.0680583999812" lon="6.70905459998831"><ele></ele><time>2013-7-30T21:48:46Z</time></trkpt>
<trkpt lat="47.0679694999813" lon="6.70922039998832"><ele></ele><time>2013-7-30T21:48:49Z</time></trkpt>
<trkpt lat="47.0674360999814" lon="6.7102150999884"><ele></ele><time>2013-7-30T21:48:52Z</time></trkpt>
<trkpt lat="47.0672136999815" lon="6.71061299998844"><ele></ele><time>2013-7-30T21:48:55Z</time></trkpt>
<trkpt lat="47.0669011999816" lon="6.71097929998851"><ele></ele><time>2013-7-30T21:48:58Z</time></trkpt>
<trkpt lat="47.0661189999819" lon="6.7117468999887"><ele></ele><time>2013-7-30T21:49:1Z</time></trkpt>
<trkpt lat="47.065873099982" lon="6.71198069998876"><ele></ele><time>2013-7-30T21:49:4Z</time></trkpt>
<trkpt lat="47.0658509999821" lon="6.71204679998876"><ele></ele><time>2013-7-30T21:49:7Z</time></trkpt>
<trkpt lat="47.0658967999819" lon="6.71217779998874"><ele></ele><time>2013-7-30T21:49:10Z</time></trkpt>
<trkpt lat="47.0661915999817" lon="6.71256879998859"><ele></ele><time>2013-7-30T21:49:13Z</time></trkpt>
<trkpt lat="47.0664641999815" lon="6.71299289998845"><ele></ele><time>2013-7-30T21:49:16Z</time></trkpt>
<trkpt lat="47.0666011999814" lon="6.71332019998838"><ele></ele><time>2013-7-30T21:49:19Z</time></trkpt>
<trkpt lat="47.0666935999813" lon="6.71371389998831"><ele></ele><time>2013-7-30T21:49:22Z</time></trkpt>
<trkpt lat="47.0666721999813" lon="6.71387879998829"><ele></ele><time>2013-7-30T21:49:25Z</time></trkpt>
<trkpt lat="47.0666050999813" lon="6.71394549998831"><ele></ele><time>2013-7-30T21:49:28Z</time></trkpt>
<trkpt lat="47.0665151999813" lon="6.71394669998834"><ele></ele><time>2013-7-30T21:49:31Z</time></trkpt>
<trkpt lat="47.0662667999815" lon="6.71378549998845"><ele></ele><time>2013-7-30T21:49:34Z</time></trkpt>
<trkpt lat="47.0662440999815" lon="6.71375289998846"><ele></ele><time>2013-7-30T21:49:37Z</time></trkpt>
<trkpt lat="47.0660635999816" lon="6.71365659998853"><ele></ele><time>2013-7-30T21:49:40Z</time></trkpt>
<trkpt lat="47.0657262999818" lon="6.71366119998864"><ele></ele><time>2013-7-30T21:49:43Z</time></trkpt>
<trkpt lat="47.0654792999819" lon="6.71373029998872"><ele></ele><time>2013-7-30T21:49:46Z</time></trkpt>
<trkpt lat="47.065322599982" lon="6.71383119998875"><ele></ele><time>2013-7-30T21:49:49Z</time></trkpt>
<trkpt lat="47.065166599982" lon="6.71406369998879"><ele></ele><time>2013-7-30T21:49:52Z</time></trkpt>
<trkpt lat="47.0650768999821" lon="6.71409779998882"><ele></ele><time>2013-7-30T21:49:55Z</time></trkpt>
<trkpt lat="47.0648076999823" lon="6.7142001999889"><ele></ele><time>2013-7-30T21:49:58Z</time></trkpt>
<trkpt lat="47.0646955999823" lon="6.71426749998893"><ele></ele><time>2013-7-30T21:50:1Z</time></trkpt>
<trkpt lat="47.0644057999824" lon="6.71466639998899"><ele></ele><time>2013-7-30T21:50:4Z</time></trkpt>
<trkpt lat="47.0643395999824" lon="6.71486479998899"><ele></ele><time>2013-7-30T21:50:7Z</time></trkpt>
<trkpt lat="47.0643863999824" lon="6.71516029998895"><ele></ele><time>2013-7-30T21:50:10Z</time></trkpt>
<trkpt lat="47.0643649999823" lon="6.71532519998894"><ele></ele><time>2013-7-30T21:50:13Z</time></trkpt>
<trkpt lat="47.0642978999823" lon="6.71539189998895"><ele></ele><time>2013-7-30T21:50:16Z</time></trkpt>
<trkpt lat="47.0642079999824" lon="6.71539309998898"><ele></ele><time>2013-7-30T21:50:19Z</time></trkpt>
<trkpt lat="47.0640266999825" lon="6.71516519998907"><ele></ele><time>2013-7-30T21:50:22Z</time></trkpt>
<trkpt lat="47.0638900999827" lon="6.71490379998914"><ele></ele><time>2013-7-30T21:50:25Z</time></trkpt>
<trkpt lat="47.0638442999826" lon="6.71477269998917"><ele></ele><time>2013-7-30T21:50:28Z</time></trkpt>
<trkpt lat="47.0638425999828" lon="6.7145094999892"><ele></ele><time>2013-7-30T21:50:31Z</time></trkpt>
<trkpt lat="47.0637967999828" lon="6.71437839998922"><ele></ele><time>2013-7-30T21:50:34Z</time></trkpt>
<trkpt lat="47.0637066999828" lon="6.71434669998927"><ele></ele><time>2013-7-30T21:50:37Z</time></trkpt>
<trkpt lat="47.0635271999829" lon="6.71441499998932"><ele></ele><time>2013-7-30T21:50:40Z</time></trkpt>
<trkpt lat="47.063347699983" lon="6.71448319998936"><ele></ele><time>2013-7-30T21:50:43Z</time></trkpt>
<trkpt lat="47.0631227999831" lon="6.71448629998945"><ele></ele><time>2013-7-30T21:50:46Z</time></trkpt>
<trkpt lat="47.0627400999833" lon="6.71442559998958"><ele></ele><time>2013-7-30T21:50:49Z</time></trkpt>
<trkpt lat="47.0626278999834" lon="6.71446009998961"><ele></ele><time>2013-7-30T21:50:52Z</time></trkpt>
<trkpt lat="47.0625608999834" lon="6.71452679998964"><ele></ele><time>2013-7-30T21:50:55Z</time></trkpt>
<trkpt lat="47.0624954999834" lon="6.71485679998962"><ele></ele><time>2013-7-30T21:50:58Z</time></trkpt>
<trkpt lat="47.0624527999833" lon="6.71521939998961"><ele></ele><time>2013-7-30T21:51:1Z</time></trkpt>
<trkpt lat="47.0623642999834" lon="6.71545089998961"><ele></ele><time>2013-7-30T21:51:4Z</time></trkpt>
<trkpt lat="47.0621856999834" lon="6.71565079998964"><ele></ele><time>2013-7-30T21:51:7Z</time></trkpt>
<trkpt lat="47.0618941999836" lon="6.71578639998973"><ele></ele><time>2013-7-30T21:51:10Z</time></trkpt>
<trkpt lat="47.0613111999839" lon="6.71605749998991"><ele></ele><time>2013-7-30T21:51:13Z</time></trkpt>
<trkpt lat="47.0611995999839" lon="6.71619069998993"><ele></ele><time>2013-7-30T21:51:16Z</time></trkpt>
<trkpt lat="47.060977799984" lon="6.71668729998996"><ele></ele><time>2013-7-30T21:51:19Z</time></trkpt>
<trkpt lat="47.060579699984" lon="6.71774579998999"><ele></ele><time>2013-7-30T21:51:22Z</time></trkpt>
<trkpt lat="47.060381599984" lon="6.71843949998999"><ele></ele><time>2013-7-30T21:51:25Z</time></trkpt>
<trkpt lat="47.060096099984" lon="6.71952929998997"><ele></ele><time>2013-7-30T21:51:28Z</time></trkpt>
<trkpt lat="47.059807099984" lon="6.72005979999002"><ele></ele><time>2013-7-30T21:51:31Z</time></trkpt>
<trkpt lat="47.059696099984" lon="6.72029159999003"><ele></ele><time>2013-7-30T21:51:34Z</time></trkpt>
<trkpt lat="47.0595421999841" lon="6.72085309999003"><ele></ele><time>2013-7-30T21:51:37Z</time></trkpt>
<trkpt lat="47.0593445999841" lon="6.72161269999002"><ele></ele><time>2013-7-30T21:51:40Z</time></trkpt>
<trkpt lat="47.059168599984" lon="6.72224029999001"><ele></ele><time>2013-7-30T21:51:43Z</time></trkpt>
<trkpt lat="47.059147499984" lon="6.72247089998999"><ele></ele><time>2013-7-30T21:51:46Z</time></trkpt>
<trkpt lat="47.0591517999839" lon="6.72316189998993"><ele></ele><time>2013-7-30T21:51:49Z</time></trkpt>
<trkpt lat="47.0590857999839" lon="6.72339319998993"><ele></ele><time>2013-7-30T21:51:52Z</time></trkpt>
<trkpt lat="47.0589966999839" lon="6.72352599998994"><ele></ele><time>2013-7-30T21:51:55Z</time></trkpt>
<trkpt lat="47.058862199984" lon="6.72359359998998"><ele></ele><time>2013-7-30T21:51:58Z</time></trkpt>
<trkpt lat="47.0586826999841" lon="6.72366179999004"><ele></ele><time>2013-7-30T21:52:1Z</time></trkpt>
<trkpt lat="47.0589175999837" lon="6.72527119998979"><ele></ele><time>2013-7-30T21:52:4Z</time></trkpt>
<trkpt lat="47.0590338999835" lon="6.72589489998968"><ele></ele><time>2013-7-30T21:52:7Z</time></trkpt>
<trkpt lat="47.059494299983" lon="6.72759999998935"><ele></ele><time>2013-7-30T21:52:10Z</time></trkpt>
<trkpt lat="47.0598392999826" lon="6.7288458999891"><ele></ele><time>2013-7-30T21:52:13Z</time></trkpt>
<trkpt lat="47.0600220999825" lon="6.72930419998899"><ele></ele><time>2013-7-30T21:52:16Z</time></trkpt>
<trkpt lat="47.0603879999821" lon="6.73028659998878"><ele></ele><time>2013-7-30T21:52:19Z</time></trkpt>
<trkpt lat="47.0605487999819" lon="6.73084389998866"><ele></ele><time>2013-7-30T21:52:22Z</time></trkpt>
<trkpt lat="47.0608267999816" lon="6.73215659998842"><ele></ele><time>2013-7-30T21:52:25Z</time></trkpt>
<trkpt lat="47.0611269999812" lon="6.73343609998819"><ele></ele><time>2013-7-30T21:52:28Z</time></trkpt>
<trkpt lat="47.061310399981" lon="6.73399319998807"><ele></ele><time>2013-7-30T21:52:31Z</time></trkpt>
<trkpt lat="47.0615629999808" lon="6.7348454999879"><ele></ele><time>2013-7-30T21:52:34Z</time></trkpt>
<trkpt lat="47.0617926999805" lon="6.73563229998774"><ele></ele><time>2013-7-30T21:52:37Z</time></trkpt>
<trkpt lat="47.0618619999803" lon="6.73592759998769"><ele></ele><time>2013-7-30T21:52:40Z</time></trkpt>
<trkpt lat="47.0618623999804" lon="6.73599339998768"><ele></ele><time>2013-7-30T21:52:43Z</time></trkpt>
<trkpt lat="47.0619317999803" lon="6.73632159998762"><ele></ele><time>2013-7-30T21:52:46Z</time></trkpt>
<trkpt lat="47.0620464999802" lon="6.73668209998754"><ele></ele><time>2013-7-30T21:52:49Z</time></trkpt>
<trkpt lat="47.0623877999799" lon="6.73733579998736"><ele></ele><time>2013-7-30T21:52:52Z</time></trkpt>
<trkpt lat="47.0626381999796" lon="6.73782619998722"><ele></ele><time>2013-7-30T21:52:55Z</time></trkpt>
<trkpt lat="47.0627067999796" lon="6.73802269998718"><ele></ele><time>2013-7-30T21:52:58Z</time></trkpt>
<trkpt lat="47.0627074999796" lon="6.73812149998717"><ele></ele><time>2013-7-30T21:53:1Z</time></trkpt>
<trkpt lat="47.0626401999796" lon="6.73815529998718"><ele></ele><time>2013-7-30T21:53:4Z</time></trkpt>
<trkpt lat="47.0625501999796" lon="6.73815639998721"><ele></ele><time>2013-7-30T21:53:7Z</time></trkpt>
<trkpt lat="47.0621873999799" lon="6.73766749998739"><ele></ele><time>2013-7-30T21:53:10Z</time></trkpt>
<trkpt lat="47.0618482999801" lon="6.73737579998753"><ele></ele><time>2013-7-30T21:53:13Z</time></trkpt>
<trkpt lat="47.0614409999804" lon="6.73695329998773"><ele></ele><time>2013-7-30T21:53:16Z</time></trkpt>
<trkpt lat="47.0611917999806" lon="6.73666039998783"><ele></ele><time>2013-7-30T21:53:19Z</time></trkpt>
<trkpt lat="47.0605572999811" lon="6.73587889998814"><ele></ele><time>2013-7-30T21:53:22Z</time></trkpt>
<trkpt lat="47.0602179999813" lon="6.73555429998829"><ele></ele><time>2013-7-30T21:53:25Z</time></trkpt>
<trkpt lat="47.0600147999815" lon="6.73542529998837"><ele></ele><time>2013-7-30T21:53:28Z</time></trkpt>
<trkpt lat="47.0598344999816" lon="6.73536179998844"><ele></ele><time>2013-7-30T21:53:31Z</time></trkpt>
<trkpt lat="47.0595640999817" lon="6.73526669998854"><ele></ele><time>2013-7-30T21:53:34Z</time></trkpt>
<trkpt lat="47.0594287999818" lon="6.7352025999886"><ele></ele><time>2013-7-30T21:53:37Z</time></trkpt>
<trkpt lat="47.0590660999821" lon="6.73474669998877"><ele></ele><time>2013-7-30T21:53:40Z</time></trkpt>
<trkpt lat="47.0587715999823" lon="6.7343885999889"><ele></ele><time>2013-7-30T21:53:43Z</time></trkpt>
<trkpt lat="47.0585908999824" lon="6.73425929998898"><ele></ele><time>2013-7-30T21:53:46Z</time></trkpt>
<trkpt lat="47.0582983999826" lon="6.73423019998908"><ele></ele><time>2013-7-30T21:53:49Z</time></trkpt>
<trkpt lat="47.0578937999828" lon="6.73426849998922"><ele></ele><time>2013-7-30T21:53:52Z</time></trkpt>
<trkpt lat="47.057646799983" lon="6.7343374999893"><ele></ele><time>2013-7-30T21:53:55Z</time></trkpt>
<trkpt lat="47.057445499983" lon="6.73450469998935"><ele></ele><time>2013-7-30T21:53:58Z</time></trkpt>
<trkpt lat="47.057356499983" lon="6.73467039998937"><ele></ele><time>2013-7-30T21:54:1Z</time></trkpt>
<trkpt lat="47.0572904999831" lon="6.73490159998937"><ele></ele><time>2013-7-30T21:54:4Z</time></trkpt>
<trkpt lat="47.0571840999829" lon="6.7358901999893"><ele></ele><time>2013-7-30T21:54:7Z</time></trkpt>
<trkpt lat="47.0571282794049" lon="6.73629738095135"><ele></ele><time>2013-7-30T21:54:10Z</time></trkpt>
<trkpt lat="47.057076114402" lon="6.73671771996506"><ele></ele><time>2013-7-30T21:54:13Z</time></trkpt>
<trkpt lat="47.0569190220187" lon="6.73710460760822"><ele></ele><time>2013-7-30T21:54:16Z</time></trkpt>
<trkpt lat="47.0568655432561" lon="6.73731078162611"><ele></ele><time>2013-7-30T21:54:19Z</time></trkpt>
<trkpt lat="47.0568922258116" lon="6.73758729852646"><ele></ele><time>2013-7-30T21:54:22Z</time></trkpt>
<trkpt lat="47.0568393024963" lon="6.73807903736858"><ele></ele><time>2013-7-30T21:54:25Z</time></trkpt>
<trkpt lat="47.0567811286113" lon="6.73849074471112"><ele></ele><time>2013-7-30T21:54:28Z</time></trkpt>
<trkpt lat="47.0568075313463" lon="6.73872199141096"><ele></ele><time>2013-7-30T21:54:31Z</time></trkpt>
<trkpt lat="47.0569993965296" lon="6.73915654853406"><ele></ele><time>2013-7-30T21:54:34Z</time></trkpt>
<trkpt lat="47.0570794080197" lon="6.73939754388142"><ele></ele><time>2013-7-30T21:54:37Z</time></trkpt>
<trkpt lat="47.0571118647362" lon="6.73964612626697"><ele></ele><time>2013-7-30T21:54:40Z</time></trkpt>
<trkpt lat="47.0570641181439" lon="6.73981739719139"><ele></ele><time>2013-7-30T21:54:43Z</time></trkpt>
<trkpt lat="47.0569731417271" lon="6.73992480424712"><ele></ele><time>2013-7-30T21:54:46Z</time></trkpt>
<trkpt lat="47.0568094209844" lon="6.74000704110929"><ele></ele><time>2013-7-30T21:54:49Z</time></trkpt>
<trkpt lat="47.0566938493886" lon="6.74017919649615"><ele></ele><time>2013-7-30T21:54:52Z</time></trkpt>
<trkpt lat="47.0566408540582" lon="6.74046546011218"><ele></ele><time>2013-7-30T21:54:55Z</time></trkpt>
<trkpt lat="47.0566482680602" lon="6.74070566180838"><ele></ele><time>2013-7-30T21:54:58Z</time></trkpt>
<trkpt lat="47.056712165561" lon="6.74123243961898"><ele></ele><time>2013-7-30T21:55:1Z</time></trkpt>
<trkpt lat="47.0567341916359" lon="6.74172319707165"><ele></ele><time>2013-7-30T21:55:4Z</time></trkpt>
<trkpt lat="47.0566981725064" lon="6.74186645205668"><ele></ele><time>2013-7-30T21:55:7Z</time></trkpt>
<trkpt lat="47.0566496609179" lon="6.74191235707227"><ele></ele><time>2013-7-30T21:55:10Z</time></trkpt>
<trkpt lat="47.056582527802" lon="6.74183139051618"><ele></ele><time>2013-7-30T21:55:13Z</time></trkpt>
<trkpt lat="47.0565571687317" lon="6.74177077554486"><ele></ele><time>2013-7-30T21:55:16Z</time></trkpt>
<trkpt lat="47.0564946284527" lon="6.74146686448732"><ele></ele><time>2013-7-30T21:55:19Z</time></trkpt>
<trkpt lat="47.0563187749344" lon="6.74072911136533"><ele></ele><time>2013-7-30T21:55:22Z</time></trkpt>
<trkpt lat="47.0562192917102" lon="6.74041697864859"><ele></ele><time>2013-7-30T21:55:25Z</time></trkpt>
<trkpt lat="47.0561902683709" lon="6.73956064875624"><ele></ele><time>2013-7-30T21:55:28Z</time></trkpt>
<trkpt lat="47.0561754367671" lon="6.73927527340711"><ele></ele><time>2013-7-30T21:55:31Z</time></trkpt>
<trkpt lat="47.056131292543" lon="6.73906167375008"><ele></ele><time>2013-7-30T21:55:34Z</time></trkpt>
<trkpt lat="47.0560323476367" lon="6.73883834322772"><ele></ele><time>2013-7-30T21:55:37Z</time></trkpt>
<trkpt lat="47.0560871915608" lon="6.73983015134045"><ele></ele><time>2013-7-30T21:55:40Z</time></trkpt>
<trkpt lat="47.056070808197" lon="6.7400706609102"><ele></ele><time>2013-7-30T21:55:43Z</time></trkpt>
<trkpt lat="47.0559994315683" lon="6.74046511937302"><ele></ele><time>2013-7-30T21:55:46Z</time></trkpt>
<trkpt lat="47.0558913163449" lon="6.74068941148424"><ele></ele><time>2013-7-30T21:55:49Z</time></trkpt>
<trkpt lat="47.0558496242214" lon="6.7408780115377"><ele></ele><time>2013-7-30T21:55:52Z</time></trkpt>
<trkpt lat="47.0560863853218" lon="6.7416515322511"><ele></ele><time>2013-7-30T21:55:55Z</time></trkpt>
<trkpt lat="47.0561903427768" lon="6.74172157082909"><ele></ele><time>2013-7-30T21:55:58Z</time></trkpt>
<trkpt lat="47.0562822313893" lon="6.74176390626312"><ele></ele><time>2013-7-30T21:56:1Z</time></trkpt>
<trkpt lat="47.0566569253304" lon="6.74310852694575"><ele></ele><time>2013-7-30T21:56:4Z</time></trkpt>
<trkpt lat="47.0567445434896" lon="6.74342778590595"><ele></ele><time>2013-7-30T21:56:7Z</time></trkpt>
<trkpt lat="47.0567896087718" lon="6.7437946133719"><ele></ele><time>2013-7-30T21:56:10Z</time></trkpt>
<trkpt lat="47.0568267104739" lon="6.74402572396161"><ele></ele><time>2013-7-30T21:56:13Z</time></trkpt>
<trkpt lat="47.0570882269623" lon="6.74476412490465"><ele></ele><time>2013-7-30T21:56:16Z</time></trkpt>
<trkpt lat="47.0572412323887" lon="6.74487706743165"><ele></ele><time>2013-7-30T21:56:19Z</time></trkpt>
<trkpt lat="47.0573218211614" lon="6.74501881011622"><ele></ele><time>2013-7-30T21:56:22Z</time></trkpt>
<trkpt lat="47.057480459485" lon="6.74507944118358"><ele></ele><time>2013-7-30T21:56:25Z</time></trkpt>
<trkpt lat="47.0575625646397" lon="6.74547191480582"><ele></ele><time>2013-7-30T21:56:28Z</time></trkpt>
</trkseg></trk></gpx>